<?xml version="1.0" encoding="UTF-8" standalone="no" ?>
<gpx xmlns="http://www.topografix.com/GPX/1/1" xmlns:xsi="http://www.w3.org/2001/XMLSchema-instance" xsi:schemaLocation="http://www.topografix.com/GPX/1/1 http://www.topografix.com/GPX/1/1/gpx.xsd" version="1.1" creator="VisuGPX - https://www.visugpx.com">
  <metadata>
    <name>Marche JMK à Mont</name>
    <desc><![CDATA[Marche du 24 Septembre 2017 à Mont avec Jean-Marie Keymolen]]></desc>
  </metadata>
  <trk>
    <name><![CDATA[2017-09-24 17:22:50]]></name>
    <trkseg>
      <trkpt lat="50.35307" lon="4.90213">
        <ele>205.38</ele>
        <time>2017-09-24T08:35:41Z</time>
      </trkpt>
      <trkpt lat="50.35308" lon="4.90212">
        <ele>205.38</ele>
        <time>2017-09-24T08:35:56Z</time>
      </trkpt>
      <trkpt lat="50.35304" lon="4.90211">
        <ele>205.38</ele>
        <time>2017-09-24T08:36:08Z</time>
      </trkpt>
      <trkpt lat="50.35298" lon="4.90219">
        <ele>205.86</ele>
        <time>2017-09-24T08:36:16Z</time>
      </trkpt>
      <trkpt lat="50.35295" lon="4.90222">
        <ele>206.34</ele>
        <time>2017-09-24T08:36:19Z</time>
      </trkpt>
      <trkpt lat="50.35275" lon="4.90239">
        <ele>208.26</ele>
        <time>2017-09-24T08:36:39Z</time>
      </trkpt>
      <trkpt lat="50.35251" lon="4.90254">
        <ele>210.19</ele>
        <time>2017-09-24T08:37:00Z</time>
      </trkpt>
      <trkpt lat="50.35229" lon="4.90258">
        <ele>212.11</ele>
        <time>2017-09-24T08:37:19Z</time>
      </trkpt>
      <trkpt lat="50.35206" lon="4.90262">
        <ele>213.55</ele>
        <time>2017-09-24T08:37:40Z</time>
      </trkpt>
      <trkpt lat="50.35181" lon="4.90253">
        <ele>214.99</ele>
        <time>2017-09-24T08:38:01Z</time>
      </trkpt>
      <trkpt lat="50.35163" lon="4.90244">
        <ele>216.43</ele>
        <time>2017-09-24T08:38:19Z</time>
      </trkpt>
      <trkpt lat="50.35149" lon="4.90239">
        <ele>218.36</ele>
        <time>2017-09-24T08:38:33Z</time>
      </trkpt>
      <trkpt lat="50.35136" lon="4.90233">
        <ele>220.28</ele>
        <time>2017-09-24T08:38:49Z</time>
      </trkpt>
      <trkpt lat="50.35121" lon="4.90229">
        <ele>223.64</ele>
        <time>2017-09-24T08:39:09Z</time>
      </trkpt>
      <trkpt lat="50.35102" lon="4.90232">
        <ele>226.53</ele>
        <time>2017-09-24T08:39:27Z</time>
      </trkpt>
      <trkpt lat="50.35083" lon="4.90235">
        <ele>228.93</ele>
        <time>2017-09-24T08:39:49Z</time>
      </trkpt>
      <trkpt lat="50.35073" lon="4.90214">
        <ele>231.33</ele>
        <time>2017-09-24T08:40:10Z</time>
      </trkpt>
      <trkpt lat="50.35067" lon="4.90208">
        <ele>233.26</ele>
        <time>2017-09-24T08:40:28Z</time>
      </trkpt>
      <trkpt lat="50.35069" lon="4.90205">
        <ele>233.26</ele>
        <time>2017-09-24T08:40:54Z</time>
      </trkpt>
      <trkpt lat="50.35067" lon="4.90201">
        <ele>233.74</ele>
        <time>2017-09-24T08:41:19Z</time>
      </trkpt>
      <trkpt lat="50.35057" lon="4.90189">
        <ele>236.62</ele>
        <time>2017-09-24T08:41:40Z</time>
      </trkpt>
      <trkpt lat="50.35052" lon="4.90173">
        <ele>239.51</ele>
        <time>2017-09-24T08:41:56Z</time>
      </trkpt>
      <trkpt lat="50.35046" lon="4.90154">
        <ele>242.87</ele>
        <time>2017-09-24T08:42:11Z</time>
      </trkpt>
      <trkpt lat="50.35037" lon="4.90144">
        <ele>245.75</ele>
        <time>2017-09-24T08:42:29Z</time>
      </trkpt>
      <trkpt lat="50.35025" lon="4.90136">
        <ele>249.12</ele>
        <time>2017-09-24T08:42:51Z</time>
      </trkpt>
      <trkpt lat="50.35011" lon="4.90151">
        <ele>251.52</ele>
        <time>2017-09-24T08:43:13Z</time>
      </trkpt>
      <trkpt lat="50.34992" lon="4.90177">
        <ele>254.89</ele>
        <time>2017-09-24T08:43:37Z</time>
      </trkpt>
      <trkpt lat="50.34974" lon="4.90193">
        <ele>256.81</ele>
        <time>2017-09-24T08:43:59Z</time>
      </trkpt>
      <trkpt lat="50.34955" lon="4.90202">
        <ele>260.17</ele>
        <time>2017-09-24T08:44:18Z</time>
      </trkpt>
      <trkpt lat="50.34932" lon="4.90204">
        <ele>263.06</ele>
        <time>2017-09-24T08:44:44Z</time>
      </trkpt>
      <trkpt lat="50.34915" lon="4.90221">
        <ele>264.98</ele>
        <time>2017-09-24T08:45:07Z</time>
      </trkpt>
      <trkpt lat="50.34903" lon="4.90222">
        <ele>265.94</ele>
        <time>2017-09-24T08:45:28Z</time>
      </trkpt>
      <trkpt lat="50.34887" lon="4.90186">
        <ele>266.9</ele>
        <time>2017-09-24T08:45:50Z</time>
      </trkpt>
      <trkpt lat="50.3488" lon="4.90153">
        <ele>266.9</ele>
        <time>2017-09-24T08:46:13Z</time>
      </trkpt>
      <trkpt lat="50.34871" lon="4.90117">
        <ele>267.38</ele>
        <time>2017-09-24T08:46:36Z</time>
      </trkpt>
      <trkpt lat="50.3487" lon="4.90103">
        <ele>268.35</ele>
        <time>2017-09-24T08:46:45Z</time>
      </trkpt>
      <trkpt lat="50.34862" lon="4.90061">
        <ele>268.35</ele>
        <time>2017-09-24T08:47:10Z</time>
      </trkpt>
      <trkpt lat="50.34852" lon="4.90017">
        <ele>268.35</ele>
        <time>2017-09-24T08:47:34Z</time>
      </trkpt>
      <trkpt lat="50.34848" lon="4.89968">
        <ele>269.31</ele>
        <time>2017-09-24T08:48:01Z</time>
      </trkpt>
      <trkpt lat="50.34846" lon="4.89926">
        <ele>269.79</ele>
        <time>2017-09-24T08:48:23Z</time>
      </trkpt>
      <trkpt lat="50.34843" lon="4.89892">
        <ele>269.79</ele>
        <time>2017-09-24T08:48:43Z</time>
      </trkpt>
      <trkpt lat="50.34842" lon="4.89858">
        <ele>270.27</ele>
        <time>2017-09-24T08:49:03Z</time>
      </trkpt>
      <trkpt lat="50.34835" lon="4.89818">
        <ele>270.75</ele>
        <time>2017-09-24T08:49:27Z</time>
      </trkpt>
      <trkpt lat="50.3483" lon="4.89784">
        <ele>271.23</ele>
        <time>2017-09-24T08:49:48Z</time>
      </trkpt>
      <trkpt lat="50.34825" lon="4.89747">
        <ele>271.23</ele>
        <time>2017-09-24T08:50:09Z</time>
      </trkpt>
      <trkpt lat="50.34821" lon="4.89701">
        <ele>271.71</ele>
        <time>2017-09-24T08:50:34Z</time>
      </trkpt>
      <trkpt lat="50.34813" lon="4.89661">
        <ele>271.71</ele>
        <time>2017-09-24T08:50:57Z</time>
      </trkpt>
      <trkpt lat="50.34812" lon="4.89619">
        <ele>271.71</ele>
        <time>2017-09-24T08:51:20Z</time>
      </trkpt>
      <trkpt lat="50.34806" lon="4.89574">
        <ele>271.71</ele>
        <time>2017-09-24T08:51:43Z</time>
      </trkpt>
      <trkpt lat="50.34802" lon="4.89541">
        <ele>271.71</ele>
        <time>2017-09-24T08:52:04Z</time>
      </trkpt>
      <trkpt lat="50.34789" lon="4.89511">
        <ele>271.71</ele>
        <time>2017-09-24T08:52:23Z</time>
      </trkpt>
      <trkpt lat="50.34788" lon="4.89508">
        <ele>272.19</ele>
        <time>2017-09-24T08:52:25Z</time>
      </trkpt>
      <trkpt lat="50.34782" lon="4.89489">
        <ele>272.67</ele>
        <time>2017-09-24T08:52:39Z</time>
      </trkpt>
      <trkpt lat="50.34774" lon="4.89477">
        <ele>272.67</ele>
        <time>2017-09-24T08:52:47Z</time>
      </trkpt>
      <trkpt lat="50.34761" lon="4.89443">
        <ele>273.15</ele>
        <time>2017-09-24T08:53:06Z</time>
      </trkpt>
      <trkpt lat="50.34749" lon="4.89412">
        <ele>273.63</ele>
        <time>2017-09-24T08:53:25Z</time>
      </trkpt>
      <trkpt lat="50.34739" lon="4.89383">
        <ele>274.11</ele>
        <time>2017-09-24T08:53:43Z</time>
      </trkpt>
      <trkpt lat="50.34726" lon="4.89352">
        <ele>274.59</ele>
        <time>2017-09-24T08:54:05Z</time>
      </trkpt>
      <trkpt lat="50.34718" lon="4.89326">
        <ele>274.11</ele>
        <time>2017-09-24T08:54:23Z</time>
      </trkpt>
      <trkpt lat="50.34705" lon="4.89295">
        <ele>274.59</ele>
        <time>2017-09-24T08:54:45Z</time>
      </trkpt>
      <trkpt lat="50.34683" lon="4.89254">
        <ele>275.07</ele>
        <time>2017-09-24T08:55:08Z</time>
      </trkpt>
      <trkpt lat="50.3468" lon="4.89214">
        <ele>275.07</ele>
        <time>2017-09-24T08:55:31Z</time>
      </trkpt>
      <trkpt lat="50.34678" lon="4.89188">
        <ele>275.07</ele>
        <time>2017-09-24T08:55:50Z</time>
      </trkpt>
      <trkpt lat="50.34679" lon="4.89166">
        <ele>275.07</ele>
        <time>2017-09-24T08:56:10Z</time>
      </trkpt>
      <trkpt lat="50.34681" lon="4.89167">
        <ele>274.59</ele>
        <time>2017-09-24T08:56:31Z</time>
      </trkpt>
      <trkpt lat="50.34682" lon="4.89164">
        <ele>274.59</ele>
        <time>2017-09-24T08:57:07Z</time>
      </trkpt>
      <trkpt lat="50.34682" lon="4.89161">
        <ele>274.11</ele>
        <time>2017-09-24T08:57:37Z</time>
      </trkpt>
      <trkpt lat="50.34677" lon="4.89153">
        <ele>274.11</ele>
        <time>2017-09-24T08:58:06Z</time>
      </trkpt>
      <trkpt lat="50.34675" lon="4.89135">
        <ele>274.11</ele>
        <time>2017-09-24T08:58:23Z</time>
      </trkpt>
      <trkpt lat="50.34681" lon="4.89101">
        <ele>274.11</ele>
        <time>2017-09-24T08:58:46Z</time>
      </trkpt>
      <trkpt lat="50.34682" lon="4.89086">
        <ele>272.67</ele>
        <time>2017-09-24T08:58:54Z</time>
      </trkpt>
      <trkpt lat="50.34687" lon="4.89052">
        <ele>272.67</ele>
        <time>2017-09-24T08:59:13Z</time>
      </trkpt>
      <trkpt lat="50.34687" lon="4.89021">
        <ele>271.71</ele>
        <time>2017-09-24T08:59:32Z</time>
      </trkpt>
      <trkpt lat="50.34687" lon="4.88984">
        <ele>272.19</ele>
        <time>2017-09-24T08:59:53Z</time>
      </trkpt>
      <trkpt lat="50.34693" lon="4.88942">
        <ele>271.23</ele>
        <time>2017-09-24T09:00:17Z</time>
      </trkpt>
      <trkpt lat="50.34695" lon="4.88904">
        <ele>270.75</ele>
        <time>2017-09-24T09:00:38Z</time>
      </trkpt>
      <trkpt lat="50.34692" lon="4.88867">
        <ele>270.75</ele>
        <time>2017-09-24T09:00:59Z</time>
      </trkpt>
      <trkpt lat="50.34685" lon="4.88832">
        <ele>270.75</ele>
        <time>2017-09-24T09:01:19Z</time>
      </trkpt>
      <trkpt lat="50.34676" lon="4.88791">
        <ele>270.75</ele>
        <time>2017-09-24T09:01:43Z</time>
      </trkpt>
      <trkpt lat="50.34663" lon="4.88757">
        <ele>271.71</ele>
        <time>2017-09-24T09:02:05Z</time>
      </trkpt>
      <trkpt lat="50.34646" lon="4.88727">
        <ele>272.67</ele>
        <time>2017-09-24T09:02:31Z</time>
      </trkpt>
      <trkpt lat="50.34628" lon="4.88693">
        <ele>272.67</ele>
        <time>2017-09-24T09:02:53Z</time>
      </trkpt>
      <trkpt lat="50.34614" lon="4.88667">
        <ele>272.67</ele>
        <time>2017-09-24T09:03:17Z</time>
      </trkpt>
      <trkpt lat="50.346" lon="4.88647">
        <ele>272.67</ele>
        <time>2017-09-24T09:03:34Z</time>
      </trkpt>
      <trkpt lat="50.34592" lon="4.88635">
        <ele>271.23</ele>
        <time>2017-09-24T09:03:44Z</time>
      </trkpt>
      <trkpt lat="50.34575" lon="4.88607">
        <ele>271.23</ele>
        <time>2017-09-24T09:04:06Z</time>
      </trkpt>
      <trkpt lat="50.34553" lon="4.88583">
        <ele>270.75</ele>
        <time>2017-09-24T09:04:27Z</time>
      </trkpt>
      <trkpt lat="50.34537" lon="4.88568">
        <ele>270.27</ele>
        <time>2017-09-24T09:04:46Z</time>
      </trkpt>
      <trkpt lat="50.34509" lon="4.88551">
        <ele>268.35</ele>
        <time>2017-09-24T09:05:09Z</time>
      </trkpt>
      <trkpt lat="50.34504" lon="4.88545">
        <ele>268.35</ele>
        <time>2017-09-24T09:05:14Z</time>
      </trkpt>
      <trkpt lat="50.345" lon="4.88543">
        <ele>268.35</ele>
        <time>2017-09-24T09:05:19Z</time>
      </trkpt>
      <trkpt lat="50.34478" lon="4.88519">
        <ele>266.42</ele>
        <time>2017-09-24T09:05:41Z</time>
      </trkpt>
      <trkpt lat="50.34458" lon="4.88494">
        <ele>265.46</ele>
        <time>2017-09-24T09:06:04Z</time>
      </trkpt>
      <trkpt lat="50.34457" lon="4.8849">
        <ele>265.46</ele>
        <time>2017-09-24T09:06:25Z</time>
      </trkpt>
      <trkpt lat="50.34456" lon="4.88491">
        <ele>265.46</ele>
        <time>2017-09-24T09:06:51Z</time>
      </trkpt>
      <trkpt lat="50.34448" lon="4.88492">
        <ele>265.46</ele>
        <time>2017-09-24T09:07:17Z</time>
      </trkpt>
      <trkpt lat="50.34429" lon="4.88502">
        <ele>264.98</ele>
        <time>2017-09-24T09:07:40Z</time>
      </trkpt>
      <trkpt lat="50.34404" lon="4.88521">
        <ele>264.5</ele>
        <time>2017-09-24T09:08:01Z</time>
      </trkpt>
      <trkpt lat="50.34384" lon="4.88515">
        <ele>263.54</ele>
        <time>2017-09-24T09:08:22Z</time>
      </trkpt>
      <trkpt lat="50.34358" lon="4.88506">
        <ele>262.1</ele>
        <time>2017-09-24T09:08:46Z</time>
      </trkpt>
      <trkpt lat="50.34327" lon="4.88496">
        <ele>261.62</ele>
        <time>2017-09-24T09:09:06Z</time>
      </trkpt>
      <trkpt lat="50.34302" lon="4.88476">
        <ele>260.65</ele>
        <time>2017-09-24T09:09:29Z</time>
      </trkpt>
      <trkpt lat="50.34282" lon="4.88445">
        <ele>259.69</ele>
        <time>2017-09-24T09:09:53Z</time>
      </trkpt>
      <trkpt lat="50.3427" lon="4.88421">
        <ele>259.21</ele>
        <time>2017-09-24T09:10:13Z</time>
      </trkpt>
      <trkpt lat="50.34245" lon="4.88397">
        <ele>258.73</ele>
        <time>2017-09-24T09:10:35Z</time>
      </trkpt>
      <trkpt lat="50.34221" lon="4.88368">
        <ele>256.33</ele>
        <time>2017-09-24T09:11:01Z</time>
      </trkpt>
      <trkpt lat="50.34201" lon="4.88334">
        <ele>253.44</ele>
        <time>2017-09-24T09:11:27Z</time>
      </trkpt>
      <trkpt lat="50.34185" lon="4.88302">
        <ele>252.48</ele>
        <time>2017-09-24T09:11:49Z</time>
      </trkpt>
      <trkpt lat="50.34169" lon="4.8827">
        <ele>249.6</ele>
        <time>2017-09-24T09:12:11Z</time>
      </trkpt>
      <trkpt lat="50.34152" lon="4.88239">
        <ele>247.68</ele>
        <time>2017-09-24T09:12:33Z</time>
      </trkpt>
      <trkpt lat="50.34133" lon="4.88204">
        <ele>244.31</ele>
        <time>2017-09-24T09:12:57Z</time>
      </trkpt>
      <trkpt lat="50.3412" lon="4.88171">
        <ele>241.91</ele>
        <time>2017-09-24T09:13:19Z</time>
      </trkpt>
      <trkpt lat="50.3411" lon="4.88144">
        <ele>238.54</ele>
        <time>2017-09-24T09:13:38Z</time>
      </trkpt>
      <trkpt lat="50.341" lon="4.88112">
        <ele>235.66</ele>
        <time>2017-09-24T09:14:00Z</time>
      </trkpt>
      <trkpt lat="50.34094" lon="4.8808">
        <ele>232.3</ele>
        <time>2017-09-24T09:14:19Z</time>
      </trkpt>
      <trkpt lat="50.34094" lon="4.88055">
        <ele>228.93</ele>
        <time>2017-09-24T09:14:35Z</time>
      </trkpt>
      <trkpt lat="50.34101" lon="4.88028">
        <ele>225.57</ele>
        <time>2017-09-24T09:14:55Z</time>
      </trkpt>
      <trkpt lat="50.34106" lon="4.87996">
        <ele>222.2</ele>
        <time>2017-09-24T09:15:13Z</time>
      </trkpt>
      <trkpt lat="50.34107" lon="4.87983">
        <ele>219.32</ele>
        <time>2017-09-24T09:15:27Z</time>
      </trkpt>
      <trkpt lat="50.34116" lon="4.87945">
        <ele>215.95</ele>
        <time>2017-09-24T09:15:50Z</time>
      </trkpt>
      <trkpt lat="50.34131" lon="4.87919">
        <ele>213.55</ele>
        <time>2017-09-24T09:16:12Z</time>
      </trkpt>
      <trkpt lat="50.34141" lon="4.87883">
        <ele>210.19</ele>
        <time>2017-09-24T09:16:35Z</time>
      </trkpt>
      <trkpt lat="50.34157" lon="4.87874">
        <ele>208.26</ele>
        <time>2017-09-24T09:16:55Z</time>
      </trkpt>
      <trkpt lat="50.3417" lon="4.87904">
        <ele>206.34</ele>
        <time>2017-09-24T09:17:16Z</time>
      </trkpt>
      <trkpt lat="50.34179" lon="4.8795">
        <ele>204.9</ele>
        <time>2017-09-24T09:17:38Z</time>
      </trkpt>
      <trkpt lat="50.34189" lon="4.87981">
        <ele>202.98</ele>
        <time>2017-09-24T09:17:58Z</time>
      </trkpt>
      <trkpt lat="50.34206" lon="4.87989">
        <ele>199.61</ele>
        <time>2017-09-24T09:18:16Z</time>
      </trkpt>
      <trkpt lat="50.34228" lon="4.87979">
        <ele>197.21</ele>
        <time>2017-09-24T09:18:38Z</time>
      </trkpt>
      <trkpt lat="50.34249" lon="4.87954">
        <ele>195.28</ele>
        <time>2017-09-24T09:19:03Z</time>
      </trkpt>
      <trkpt lat="50.34269" lon="4.8793">
        <ele>191.92</ele>
        <time>2017-09-24T09:19:26Z</time>
      </trkpt>
      <trkpt lat="50.34292" lon="4.8792">
        <ele>188.56</ele>
        <time>2017-09-24T09:19:48Z</time>
      </trkpt>
      <trkpt lat="50.34293" lon="4.87902">
        <ele>185.19</ele>
        <time>2017-09-24T09:20:06Z</time>
      </trkpt>
      <trkpt lat="50.34296" lon="4.87895">
        <ele>182.79</ele>
        <time>2017-09-24T09:20:29Z</time>
      </trkpt>
      <trkpt lat="50.343" lon="4.87881">
        <ele>179.42</ele>
        <time>2017-09-24T09:20:46Z</time>
      </trkpt>
      <trkpt lat="50.34304" lon="4.87872">
        <ele>176.54</ele>
        <time>2017-09-24T09:20:56Z</time>
      </trkpt>
      <trkpt lat="50.34303" lon="4.87854">
        <ele>172.69</ele>
        <time>2017-09-24T09:21:10Z</time>
      </trkpt>
      <trkpt lat="50.34307" lon="4.87843">
        <ele>171.73</ele>
        <time>2017-09-24T09:21:27Z</time>
      </trkpt>
      <trkpt lat="50.34307" lon="4.87834">
        <ele>170.29</ele>
        <time>2017-09-24T09:21:46Z</time>
      </trkpt>
      <trkpt lat="50.34307" lon="4.87821">
        <ele>169.81</ele>
        <time>2017-09-24T09:22:12Z</time>
      </trkpt>
      <trkpt lat="50.34306" lon="4.87819">
        <ele>169.81</ele>
        <time>2017-09-24T09:22:41Z</time>
      </trkpt>
      <trkpt lat="50.3431" lon="4.87816">
        <ele>170.29</ele>
        <time>2017-09-24T09:23:09Z</time>
      </trkpt>
      <trkpt lat="50.34311" lon="4.8782">
        <ele>170.29</ele>
        <time>2017-09-24T09:23:36Z</time>
      </trkpt>
      <trkpt lat="50.34308" lon="4.87822">
        <ele>170.29</ele>
        <time>2017-09-24T09:24:02Z</time>
      </trkpt>
      <trkpt lat="50.34305" lon="4.87825">
        <ele>170.29</ele>
        <time>2017-09-24T09:24:31Z</time>
      </trkpt>
      <trkpt lat="50.34286" lon="4.87817">
        <ele>170.77</ele>
        <time>2017-09-24T09:24:53Z</time>
      </trkpt>
      <trkpt lat="50.34261" lon="4.878">
        <ele>170.77</ele>
        <time>2017-09-24T09:25:16Z</time>
      </trkpt>
      <trkpt lat="50.34239" lon="4.87784">
        <ele>170.77</ele>
        <time>2017-09-24T09:25:36Z</time>
      </trkpt>
      <trkpt lat="50.34222" lon="4.87754">
        <ele>171.25</ele>
        <time>2017-09-24T09:26:00Z</time>
      </trkpt>
      <trkpt lat="50.34204" lon="4.87723">
        <ele>171.25</ele>
        <time>2017-09-24T09:26:23Z</time>
      </trkpt>
      <trkpt lat="50.34183" lon="4.87694">
        <ele>171.25</ele>
        <time>2017-09-24T09:26:46Z</time>
      </trkpt>
      <trkpt lat="50.34161" lon="4.8766">
        <ele>171.73</ele>
        <time>2017-09-24T09:27:09Z</time>
      </trkpt>
      <trkpt lat="50.34143" lon="4.87635">
        <ele>171.73</ele>
        <time>2017-09-24T09:27:28Z</time>
      </trkpt>
      <trkpt lat="50.34125" lon="4.87606">
        <ele>171.73</ele>
        <time>2017-09-24T09:27:53Z</time>
      </trkpt>
      <trkpt lat="50.34104" lon="4.8758">
        <ele>171.73</ele>
        <time>2017-09-24T09:28:15Z</time>
      </trkpt>
      <trkpt lat="50.34083" lon="4.87558">
        <ele>171.73</ele>
        <time>2017-09-24T09:28:37Z</time>
      </trkpt>
      <trkpt lat="50.34077" lon="4.87552">
        <ele>171.73</ele>
        <time>2017-09-24T09:28:42Z</time>
      </trkpt>
      <trkpt lat="50.34057" lon="4.87535">
        <ele>171.73</ele>
        <time>2017-09-24T09:29:02Z</time>
      </trkpt>
      <trkpt lat="50.34053" lon="4.87531">
        <ele>173.17</ele>
        <time>2017-09-24T09:29:10Z</time>
      </trkpt>
      <trkpt lat="50.3404" lon="4.87527">
        <ele>173.17</ele>
        <time>2017-09-24T09:29:30Z</time>
      </trkpt>
      <trkpt lat="50.34022" lon="4.87513">
        <ele>173.66</ele>
        <time>2017-09-24T09:29:49Z</time>
      </trkpt>
      <trkpt lat="50.34006" lon="4.87508">
        <ele>173.66</ele>
        <time>2017-09-24T09:30:08Z</time>
      </trkpt>
      <trkpt lat="50.33997" lon="4.87523">
        <ele>176.54</ele>
        <time>2017-09-24T09:30:24Z</time>
      </trkpt>
      <trkpt lat="50.33986" lon="4.87548">
        <ele>179.42</ele>
        <time>2017-09-24T09:30:44Z</time>
      </trkpt>
      <trkpt lat="50.3398" lon="4.8757">
        <ele>182.31</ele>
        <time>2017-09-24T09:31:04Z</time>
      </trkpt>
      <trkpt lat="50.33978" lon="4.87595">
        <ele>184.23</ele>
        <time>2017-09-24T09:31:17Z</time>
      </trkpt>
      <trkpt lat="50.33974" lon="4.8762">
        <ele>187.11</ele>
        <time>2017-09-24T09:31:35Z</time>
      </trkpt>
      <trkpt lat="50.33973" lon="4.87643">
        <ele>189.52</ele>
        <time>2017-09-24T09:31:53Z</time>
      </trkpt>
      <trkpt lat="50.33975" lon="4.87681">
        <ele>190.96</ele>
        <time>2017-09-24T09:32:15Z</time>
      </trkpt>
      <trkpt lat="50.33975" lon="4.87688">
        <ele>190.96</ele>
        <time>2017-09-24T09:32:19Z</time>
      </trkpt>
      <trkpt lat="50.33976" lon="4.87719">
        <ele>191.44</ele>
        <time>2017-09-24T09:32:38Z</time>
      </trkpt>
      <trkpt lat="50.33982" lon="4.87752">
        <ele>191.92</ele>
        <time>2017-09-24T09:32:58Z</time>
      </trkpt>
      <trkpt lat="50.33982" lon="4.87791">
        <ele>193.36</ele>
        <time>2017-09-24T09:33:21Z</time>
      </trkpt>
      <trkpt lat="50.33986" lon="4.87817">
        <ele>195.28</ele>
        <time>2017-09-24T09:33:39Z</time>
      </trkpt>
      <trkpt lat="50.33979" lon="4.87847">
        <ele>197.69</ele>
        <time>2017-09-24T09:34:01Z</time>
      </trkpt>
      <trkpt lat="50.3396" lon="4.87867">
        <ele>200.09</ele>
        <time>2017-09-24T09:34:23Z</time>
      </trkpt>
      <trkpt lat="50.33946" lon="4.87889">
        <ele>200.57</ele>
        <time>2017-09-24T09:34:46Z</time>
      </trkpt>
      <trkpt lat="50.33931" lon="4.87916">
        <ele>200.09</ele>
        <time>2017-09-24T09:35:08Z</time>
      </trkpt>
      <trkpt lat="50.33928" lon="4.87923">
        <ele>198.65</ele>
        <time>2017-09-24T09:35:12Z</time>
      </trkpt>
      <trkpt lat="50.33917" lon="4.87946">
        <ele>197.69</ele>
        <time>2017-09-24T09:35:32Z</time>
      </trkpt>
      <trkpt lat="50.33901" lon="4.87973">
        <ele>197.69</ele>
        <time>2017-09-24T09:35:50Z</time>
      </trkpt>
      <trkpt lat="50.3389" lon="4.88009">
        <ele>197.21</ele>
        <time>2017-09-24T09:36:13Z</time>
      </trkpt>
      <trkpt lat="50.33887" lon="4.88022">
        <ele>198.17</ele>
        <time>2017-09-24T09:36:23Z</time>
      </trkpt>
      <trkpt lat="50.33886" lon="4.88051">
        <ele>200.57</ele>
        <time>2017-09-24T09:36:40Z</time>
      </trkpt>
      <trkpt lat="50.33886" lon="4.88078">
        <ele>201.53</ele>
        <time>2017-09-24T09:36:59Z</time>
      </trkpt>
      <trkpt lat="50.33883" lon="4.88117">
        <ele>202.98</ele>
        <time>2017-09-24T09:37:22Z</time>
      </trkpt>
      <trkpt lat="50.33882" lon="4.88151">
        <ele>203.94</ele>
        <time>2017-09-24T09:37:40Z</time>
      </trkpt>
      <trkpt lat="50.33876" lon="4.88187">
        <ele>205.38</ele>
        <time>2017-09-24T09:38:01Z</time>
      </trkpt>
      <trkpt lat="50.33876" lon="4.88215">
        <ele>206.34</ele>
        <time>2017-09-24T09:38:21Z</time>
      </trkpt>
      <trkpt lat="50.33873" lon="4.88243">
        <ele>206.82</ele>
        <time>2017-09-24T09:38:38Z</time>
      </trkpt>
      <trkpt lat="50.33871" lon="4.88271">
        <ele>207.78</ele>
        <time>2017-09-24T09:38:55Z</time>
      </trkpt>
      <trkpt lat="50.3387" lon="4.88298">
        <ele>207.78</ele>
        <time>2017-09-24T09:39:12Z</time>
      </trkpt>
      <trkpt lat="50.33868" lon="4.88334">
        <ele>208.26</ele>
        <time>2017-09-24T09:39:31Z</time>
      </trkpt>
      <trkpt lat="50.33869" lon="4.88365">
        <ele>208.26</ele>
        <time>2017-09-24T09:39:50Z</time>
      </trkpt>
      <trkpt lat="50.33867" lon="4.88396">
        <ele>208.26</ele>
        <time>2017-09-24T09:40:09Z</time>
      </trkpt>
      <trkpt lat="50.33864" lon="4.88436">
        <ele>208.26</ele>
        <time>2017-09-24T09:40:30Z</time>
      </trkpt>
      <trkpt lat="50.33861" lon="4.88454">
        <ele>206.82</ele>
        <time>2017-09-24T09:40:41Z</time>
      </trkpt>
      <trkpt lat="50.33857" lon="4.88499">
        <ele>205.86</ele>
        <time>2017-09-24T09:41:05Z</time>
      </trkpt>
      <trkpt lat="50.33856" lon="4.88537">
        <ele>205.38</ele>
        <time>2017-09-24T09:41:28Z</time>
      </trkpt>
      <trkpt lat="50.33853" lon="4.8858">
        <ele>204.9</ele>
        <time>2017-09-24T09:41:50Z</time>
      </trkpt>
      <trkpt lat="50.33851" lon="4.88619">
        <ele>203.94</ele>
        <time>2017-09-24T09:42:11Z</time>
      </trkpt>
      <trkpt lat="50.33843" lon="4.88656">
        <ele>202.98</ele>
        <time>2017-09-24T09:42:33Z</time>
      </trkpt>
      <trkpt lat="50.33835" lon="4.88695">
        <ele>202.01</ele>
        <time>2017-09-24T09:42:54Z</time>
      </trkpt>
      <trkpt lat="50.33833" lon="4.88722">
        <ele>200.57</ele>
        <time>2017-09-24T09:43:13Z</time>
      </trkpt>
      <trkpt lat="50.33831" lon="4.8872">
        <ele>200.09</ele>
        <time>2017-09-24T09:43:31Z</time>
      </trkpt>
      <trkpt lat="50.33832" lon="4.88718">
        <ele>200.09</ele>
        <time>2017-09-24T09:43:50Z</time>
      </trkpt>
      <trkpt lat="50.33831" lon="4.88718">
        <ele>200.09</ele>
        <time>2017-09-24T09:44:07Z</time>
      </trkpt>
      <trkpt lat="50.33831" lon="4.88719">
        <ele>201.05</ele>
        <time>2017-09-24T09:44:21Z</time>
      </trkpt>
      <trkpt lat="50.33831" lon="4.88719">
        <ele>201.05</ele>
        <time>2017-09-24T09:44:38Z</time>
      </trkpt>
      <trkpt lat="50.33832" lon="4.88718">
        <ele>201.53</ele>
        <time>2017-09-24T09:44:52Z</time>
      </trkpt>
      <trkpt lat="50.33831" lon="4.88719">
        <ele>201.53</ele>
        <time>2017-09-24T09:45:15Z</time>
      </trkpt>
      <trkpt lat="50.33831" lon="4.88719">
        <ele>201.53</ele>
        <time>2017-09-24T09:45:34Z</time>
      </trkpt>
      <trkpt lat="50.33832" lon="4.88719">
        <ele>201.53</ele>
        <time>2017-09-24T09:45:57Z</time>
      </trkpt>
      <trkpt lat="50.33831" lon="4.88718">
        <ele>201.53</ele>
        <time>2017-09-24T09:46:17Z</time>
      </trkpt>
      <trkpt lat="50.3383" lon="4.88719">
        <ele>201.53</ele>
        <time>2017-09-24T09:46:42Z</time>
      </trkpt>
      <trkpt lat="50.33831" lon="4.88719">
        <ele>201.53</ele>
        <time>2017-09-24T09:47:02Z</time>
      </trkpt>
      <trkpt lat="50.33833" lon="4.88722">
        <ele>201.53</ele>
        <time>2017-09-24T09:47:30Z</time>
      </trkpt>
      <trkpt lat="50.33831" lon="4.88721">
        <ele>202.01</ele>
        <time>2017-09-24T09:47:56Z</time>
      </trkpt>
      <trkpt lat="50.33831" lon="4.8872">
        <ele>202.01</ele>
        <time>2017-09-24T09:48:23Z</time>
      </trkpt>
      <trkpt lat="50.33832" lon="4.88721">
        <ele>202.01</ele>
        <time>2017-09-24T09:48:45Z</time>
      </trkpt>
      <trkpt lat="50.33832" lon="4.88721">
        <ele>202.01</ele>
        <time>2017-09-24T09:49:18Z</time>
      </trkpt>
      <trkpt lat="50.33833" lon="4.8872">
        <ele>202.01</ele>
        <time>2017-09-24T09:49:38Z</time>
      </trkpt>
      <trkpt lat="50.33833" lon="4.88719">
        <ele>202.49</ele>
        <time>2017-09-24T09:49:58Z</time>
      </trkpt>
      <trkpt lat="50.33832" lon="4.88718">
        <ele>202.49</ele>
        <time>2017-09-24T09:50:22Z</time>
      </trkpt>
      <trkpt lat="50.33832" lon="4.88718">
        <ele>202.49</ele>
        <time>2017-09-24T09:50:49Z</time>
      </trkpt>
      <trkpt lat="50.33829" lon="4.8872">
        <ele>202.49</ele>
        <time>2017-09-24T09:51:06Z</time>
      </trkpt>
      <trkpt lat="50.3382" lon="4.88717">
        <ele>202.49</ele>
        <time>2017-09-24T09:51:23Z</time>
      </trkpt>
      <trkpt lat="50.33819" lon="4.88716">
        <ele>202.49</ele>
        <time>2017-09-24T09:51:24Z</time>
      </trkpt>
      <trkpt lat="50.33799" lon="4.88714">
        <ele>200.57</ele>
        <time>2017-09-24T09:51:43Z</time>
      </trkpt>
      <trkpt lat="50.33793" lon="4.88716">
        <ele>199.61</ele>
        <time>2017-09-24T09:51:48Z</time>
      </trkpt>
      <trkpt lat="50.33766" lon="4.88717">
        <ele>197.69</ele>
        <time>2017-09-24T09:52:10Z</time>
      </trkpt>
      <trkpt lat="50.33738" lon="4.88718">
        <ele>196.73</ele>
        <time>2017-09-24T09:52:33Z</time>
      </trkpt>
      <trkpt lat="50.33722" lon="4.88743">
        <ele>194.8</ele>
        <time>2017-09-24T09:52:54Z</time>
      </trkpt>
      <trkpt lat="50.33712" lon="4.88778">
        <ele>192.88</ele>
        <time>2017-09-24T09:53:15Z</time>
      </trkpt>
      <trkpt lat="50.33699" lon="4.88821">
        <ele>190.48</ele>
        <time>2017-09-24T09:53:39Z</time>
      </trkpt>
      <trkpt lat="50.33679" lon="4.88813">
        <ele>190</ele>
        <time>2017-09-24T09:53:58Z</time>
      </trkpt>
      <trkpt lat="50.33671" lon="4.88801">
        <ele>190</ele>
        <time>2017-09-24T09:54:08Z</time>
      </trkpt>
      <trkpt lat="50.3365" lon="4.88769">
        <ele>191.44</ele>
        <time>2017-09-24T09:54:31Z</time>
      </trkpt>
      <trkpt lat="50.33632" lon="4.88735">
        <ele>191.44</ele>
        <time>2017-09-24T09:54:55Z</time>
      </trkpt>
      <trkpt lat="50.33625" lon="4.88725">
        <ele>190.48</ele>
        <time>2017-09-24T09:55:02Z</time>
      </trkpt>
      <trkpt lat="50.33617" lon="4.88699">
        <ele>189.04</ele>
        <time>2017-09-24T09:55:20Z</time>
      </trkpt>
      <trkpt lat="50.33598" lon="4.88666">
        <ele>187.11</ele>
        <time>2017-09-24T09:55:42Z</time>
      </trkpt>
      <trkpt lat="50.3358" lon="4.88631">
        <ele>184.71</ele>
        <time>2017-09-24T09:56:05Z</time>
      </trkpt>
      <trkpt lat="50.33572" lon="4.88613">
        <ele>184.23</ele>
        <time>2017-09-24T09:56:24Z</time>
      </trkpt>
      <trkpt lat="50.3356" lon="4.88588">
        <ele>182.31</ele>
        <time>2017-09-24T09:56:44Z</time>
      </trkpt>
      <trkpt lat="50.33548" lon="4.88548">
        <ele>179.42</ele>
        <time>2017-09-24T09:57:08Z</time>
      </trkpt>
      <trkpt lat="50.33535" lon="4.8851">
        <ele>177.5</ele>
        <time>2017-09-24T09:57:32Z</time>
      </trkpt>
      <trkpt lat="50.33513" lon="4.88493">
        <ele>175.58</ele>
        <time>2017-09-24T09:57:52Z</time>
      </trkpt>
      <trkpt lat="50.33503" lon="4.8849">
        <ele>174.62</ele>
        <time>2017-09-24T09:58:00Z</time>
      </trkpt>
      <trkpt lat="50.3348" lon="4.88472">
        <ele>173.17</ele>
        <time>2017-09-24T09:58:21Z</time>
      </trkpt>
      <trkpt lat="50.33474" lon="4.88457">
        <ele>172.69</ele>
        <time>2017-09-24T09:58:30Z</time>
      </trkpt>
      <trkpt lat="50.33477" lon="4.88416">
        <ele>170.29</ele>
        <time>2017-09-24T09:58:51Z</time>
      </trkpt>
      <trkpt lat="50.33479" lon="4.8837">
        <ele>167.41</ele>
        <time>2017-09-24T09:59:16Z</time>
      </trkpt>
      <trkpt lat="50.33479" lon="4.88327">
        <ele>165.48</ele>
        <time>2017-09-24T09:59:39Z</time>
      </trkpt>
      <trkpt lat="50.33478" lon="4.88281">
        <ele>163.08</ele>
        <time>2017-09-24T10:00:02Z</time>
      </trkpt>
      <trkpt lat="50.33481" lon="4.88245">
        <ele>162.6</ele>
        <time>2017-09-24T10:00:26Z</time>
      </trkpt>
      <trkpt lat="50.33479" lon="4.88234">
        <ele>160.68</ele>
        <time>2017-09-24T10:00:42Z</time>
      </trkpt>
      <trkpt lat="50.33485" lon="4.8822">
        <ele>157.79</ele>
        <time>2017-09-24T10:00:56Z</time>
      </trkpt>
      <trkpt lat="50.33491" lon="4.88195">
        <ele>153.95</ele>
        <time>2017-09-24T10:01:15Z</time>
      </trkpt>
      <trkpt lat="50.33499" lon="4.88173">
        <ele>151.06</ele>
        <time>2017-09-24T10:01:35Z</time>
      </trkpt>
      <trkpt lat="50.33497" lon="4.88136">
        <ele>147.7</ele>
        <time>2017-09-24T10:01:54Z</time>
      </trkpt>
      <trkpt lat="50.33497" lon="4.88103">
        <ele>144.34</ele>
        <time>2017-09-24T10:02:12Z</time>
      </trkpt>
      <trkpt lat="50.33499" lon="4.88076">
        <ele>140.97</ele>
        <time>2017-09-24T10:02:31Z</time>
      </trkpt>
      <trkpt lat="50.33502" lon="4.88049">
        <ele>137.61</ele>
        <time>2017-09-24T10:02:49Z</time>
      </trkpt>
      <trkpt lat="50.33505" lon="4.88011">
        <ele>134.72</ele>
        <time>2017-09-24T10:03:07Z</time>
      </trkpt>
      <trkpt lat="50.33508" lon="4.87975">
        <ele>131.36</ele>
        <time>2017-09-24T10:03:29Z</time>
      </trkpt>
      <trkpt lat="50.33508" lon="4.87942">
        <ele>127.99</ele>
        <time>2017-09-24T10:03:49Z</time>
      </trkpt>
      <trkpt lat="50.33506" lon="4.87909">
        <ele>125.11</ele>
        <time>2017-09-24T10:04:09Z</time>
      </trkpt>
      <trkpt lat="50.33509" lon="4.87885">
        <ele>121.74</ele>
        <time>2017-09-24T10:04:23Z</time>
      </trkpt>
      <trkpt lat="50.33511" lon="4.87856">
        <ele>118.38</ele>
        <time>2017-09-24T10:04:40Z</time>
      </trkpt>
      <trkpt lat="50.33515" lon="4.87831">
        <ele>115.5</ele>
        <time>2017-09-24T10:05:00Z</time>
      </trkpt>
      <trkpt lat="50.33517" lon="4.878">
        <ele>112.13</ele>
        <time>2017-09-24T10:05:20Z</time>
      </trkpt>
      <trkpt lat="50.33522" lon="4.87772">
        <ele>108.77</ele>
        <time>2017-09-24T10:05:38Z</time>
      </trkpt>
      <trkpt lat="50.33526" lon="4.87732">
        <ele>105.88</ele>
        <time>2017-09-24T10:05:58Z</time>
      </trkpt>
      <trkpt lat="50.33532" lon="4.87693">
        <ele>103</ele>
        <time>2017-09-24T10:06:21Z</time>
      </trkpt>
      <trkpt lat="50.33533" lon="4.87652">
        <ele>101.08</ele>
        <time>2017-09-24T10:06:44Z</time>
      </trkpt>
      <trkpt lat="50.33541" lon="4.87621">
        <ele>98.19</ele>
        <time>2017-09-24T10:07:06Z</time>
      </trkpt>
      <trkpt lat="50.33542" lon="4.87581">
        <ele>95.31</ele>
        <time>2017-09-24T10:07:30Z</time>
      </trkpt>
      <trkpt lat="50.33545" lon="4.87547">
        <ele>92.42</ele>
        <time>2017-09-24T10:07:47Z</time>
      </trkpt>
      <trkpt lat="50.33548" lon="4.87519">
        <ele>90.02</ele>
        <time>2017-09-24T10:08:04Z</time>
      </trkpt>
      <trkpt lat="50.33557" lon="4.87488">
        <ele>87.62</ele>
        <time>2017-09-24T10:08:24Z</time>
      </trkpt>
      <trkpt lat="50.33555" lon="4.87485">
        <ele>87.62</ele>
        <time>2017-09-24T10:08:41Z</time>
      </trkpt>
      <trkpt lat="50.33556" lon="4.87476">
        <ele>87.14</ele>
        <time>2017-09-24T10:09:01Z</time>
      </trkpt>
      <trkpt lat="50.33559" lon="4.87468">
        <ele>87.14</ele>
        <time>2017-09-24T10:09:12Z</time>
      </trkpt>
      <trkpt lat="50.3357" lon="4.87449">
        <ele>86.18</ele>
        <time>2017-09-24T10:09:30Z</time>
      </trkpt>
      <trkpt lat="50.33573" lon="4.87447">
        <ele>86.18</ele>
        <time>2017-09-24T10:09:33Z</time>
      </trkpt>
      <trkpt lat="50.33585" lon="4.87438">
        <ele>86.66</ele>
        <time>2017-09-24T10:09:49Z</time>
      </trkpt>
      <trkpt lat="50.33609" lon="4.87419">
        <ele>85.21</ele>
        <time>2017-09-24T10:10:12Z</time>
      </trkpt>
      <trkpt lat="50.3362" lon="4.87411">
        <ele>84.73</ele>
        <time>2017-09-24T10:10:32Z</time>
      </trkpt>
      <trkpt lat="50.33631" lon="4.87395">
        <ele>84.25</ele>
        <time>2017-09-24T10:10:51Z</time>
      </trkpt>
      <trkpt lat="50.33644" lon="4.87385">
        <ele>84.25</ele>
        <time>2017-09-24T10:11:04Z</time>
      </trkpt>
      <trkpt lat="50.33654" lon="4.87372">
        <ele>84.25</ele>
        <time>2017-09-24T10:11:19Z</time>
      </trkpt>
      <trkpt lat="50.33657" lon="4.87368">
        <ele>84.25</ele>
        <time>2017-09-24T10:11:23Z</time>
      </trkpt>
      <trkpt lat="50.33672" lon="4.87358">
        <ele>83.29</ele>
        <time>2017-09-24T10:11:41Z</time>
      </trkpt>
      <trkpt lat="50.33672" lon="4.87349">
        <ele>82.81</ele>
        <time>2017-09-24T10:12:00Z</time>
      </trkpt>
      <trkpt lat="50.33671" lon="4.87347">
        <ele>82.33</ele>
        <time>2017-09-24T10:12:06Z</time>
      </trkpt>
      <trkpt lat="50.33656" lon="4.87316">
        <ele>82.33</ele>
        <time>2017-09-24T10:12:30Z</time>
      </trkpt>
      <trkpt lat="50.3365" lon="4.87309">
        <ele>81.85</ele>
        <time>2017-09-24T10:12:45Z</time>
      </trkpt>
      <trkpt lat="50.33655" lon="4.87306">
        <ele>83.29</ele>
        <time>2017-09-24T10:12:55Z</time>
      </trkpt>
      <trkpt lat="50.33661" lon="4.87301">
        <ele>83.29</ele>
        <time>2017-09-24T10:13:00Z</time>
      </trkpt>
      <trkpt lat="50.33685" lon="4.87282">
        <ele>83.29</ele>
        <time>2017-09-24T10:13:21Z</time>
      </trkpt>
      <trkpt lat="50.33707" lon="4.87258">
        <ele>83.29</ele>
        <time>2017-09-24T10:13:44Z</time>
      </trkpt>
      <trkpt lat="50.33709" lon="4.87256">
        <ele>83.29</ele>
        <time>2017-09-24T10:13:46Z</time>
      </trkpt>
      <trkpt lat="50.33717" lon="4.87241">
        <ele>83.29</ele>
        <time>2017-09-24T10:13:58Z</time>
      </trkpt>
      <trkpt lat="50.33732" lon="4.87217">
        <ele>83.29</ele>
        <time>2017-09-24T10:14:18Z</time>
      </trkpt>
      <trkpt lat="50.33739" lon="4.87203">
        <ele>83.29</ele>
        <time>2017-09-24T10:14:34Z</time>
      </trkpt>
      <trkpt lat="50.3374" lon="4.87202">
        <ele>83.29</ele>
        <time>2017-09-24T10:14:35Z</time>
      </trkpt>
      <trkpt lat="50.3375" lon="4.87182">
        <ele>83.29</ele>
        <time>2017-09-24T10:14:52Z</time>
      </trkpt>
      <trkpt lat="50.33763" lon="4.87156">
        <ele>83.29</ele>
        <time>2017-09-24T10:15:10Z</time>
      </trkpt>
      <trkpt lat="50.33773" lon="4.87127">
        <ele>83.29</ele>
        <time>2017-09-24T10:15:28Z</time>
      </trkpt>
      <trkpt lat="50.33783" lon="4.87095">
        <ele>83.29</ele>
        <time>2017-09-24T10:15:48Z</time>
      </trkpt>
      <trkpt lat="50.33793" lon="4.87065">
        <ele>83.29</ele>
        <time>2017-09-24T10:16:07Z</time>
      </trkpt>
      <trkpt lat="50.33803" lon="4.87028">
        <ele>83.29</ele>
        <time>2017-09-24T10:16:28Z</time>
      </trkpt>
      <trkpt lat="50.3381" lon="4.86998">
        <ele>83.77</ele>
        <time>2017-09-24T10:16:46Z</time>
      </trkpt>
      <trkpt lat="50.33817" lon="4.86955">
        <ele>83.77</ele>
        <time>2017-09-24T10:17:10Z</time>
      </trkpt>
      <trkpt lat="50.33823" lon="4.8691">
        <ele>83.77</ele>
        <time>2017-09-24T10:17:33Z</time>
      </trkpt>
      <trkpt lat="50.33824" lon="4.86873">
        <ele>83.77</ele>
        <time>2017-09-24T10:17:54Z</time>
      </trkpt>
      <trkpt lat="50.33823" lon="4.86834">
        <ele>83.77</ele>
        <time>2017-09-24T10:18:15Z</time>
      </trkpt>
      <trkpt lat="50.33819" lon="4.86798">
        <ele>83.77</ele>
        <time>2017-09-24T10:18:34Z</time>
      </trkpt>
      <trkpt lat="50.33819" lon="4.86761">
        <ele>83.77</ele>
        <time>2017-09-24T10:18:53Z</time>
      </trkpt>
      <trkpt lat="50.33827" lon="4.86733">
        <ele>83.77</ele>
        <time>2017-09-24T10:19:08Z</time>
      </trkpt>
      <trkpt lat="50.3384" lon="4.86705">
        <ele>83.77</ele>
        <time>2017-09-24T10:19:26Z</time>
      </trkpt>
      <trkpt lat="50.33852" lon="4.86673">
        <ele>83.77</ele>
        <time>2017-09-24T10:19:47Z</time>
      </trkpt>
      <trkpt lat="50.33862" lon="4.86639">
        <ele>83.77</ele>
        <time>2017-09-24T10:20:07Z</time>
      </trkpt>
      <trkpt lat="50.3387" lon="4.866">
        <ele>83.77</ele>
        <time>2017-09-24T10:20:27Z</time>
      </trkpt>
      <trkpt lat="50.33884" lon="4.8657">
        <ele>83.77</ele>
        <time>2017-09-24T10:20:47Z</time>
      </trkpt>
      <trkpt lat="50.33896" lon="4.86532">
        <ele>83.77</ele>
        <time>2017-09-24T10:21:09Z</time>
      </trkpt>
      <trkpt lat="50.3391" lon="4.86497">
        <ele>84.25</ele>
        <time>2017-09-24T10:21:31Z</time>
      </trkpt>
      <trkpt lat="50.33921" lon="4.86458">
        <ele>85.21</ele>
        <time>2017-09-24T10:21:53Z</time>
      </trkpt>
      <trkpt lat="50.33936" lon="4.86429">
        <ele>85.21</ele>
        <time>2017-09-24T10:22:12Z</time>
      </trkpt>
      <trkpt lat="50.33957" lon="4.86401">
        <ele>85.21</ele>
        <time>2017-09-24T10:22:35Z</time>
      </trkpt>
      <trkpt lat="50.33973" lon="4.86367">
        <ele>84.25</ele>
        <time>2017-09-24T10:22:57Z</time>
      </trkpt>
      <trkpt lat="50.33986" lon="4.86344">
        <ele>83.29</ele>
        <time>2017-09-24T10:23:15Z</time>
      </trkpt>
      <trkpt lat="50.34002" lon="4.86316">
        <ele>83.29</ele>
        <time>2017-09-24T10:23:36Z</time>
      </trkpt>
      <trkpt lat="50.34017" lon="4.86292">
        <ele>83.29</ele>
        <time>2017-09-24T10:23:54Z</time>
      </trkpt>
      <trkpt lat="50.34019" lon="4.86281">
        <ele>83.29</ele>
        <time>2017-09-24T10:24:00Z</time>
      </trkpt>
      <trkpt lat="50.34027" lon="4.86239">
        <ele>83.29</ele>
        <time>2017-09-24T10:24:23Z</time>
      </trkpt>
      <trkpt lat="50.34035" lon="4.86199">
        <ele>83.29</ele>
        <time>2017-09-24T10:24:45Z</time>
      </trkpt>
      <trkpt lat="50.34047" lon="4.86162">
        <ele>82.81</ele>
        <time>2017-09-24T10:25:07Z</time>
      </trkpt>
      <trkpt lat="50.34065" lon="4.8614">
        <ele>81.85</ele>
        <time>2017-09-24T10:25:26Z</time>
      </trkpt>
      <trkpt lat="50.34089" lon="4.86113">
        <ele>82.33</ele>
        <time>2017-09-24T10:25:51Z</time>
      </trkpt>
      <trkpt lat="50.34115" lon="4.86093">
        <ele>82.33</ele>
        <time>2017-09-24T10:26:15Z</time>
      </trkpt>
      <trkpt lat="50.34133" lon="4.86079">
        <ele>82.33</ele>
        <time>2017-09-24T10:26:39Z</time>
      </trkpt>
      <trkpt lat="50.34143" lon="4.86067">
        <ele>82.33</ele>
        <time>2017-09-24T10:26:55Z</time>
      </trkpt>
      <trkpt lat="50.34169" lon="4.86043">
        <ele>82.33</ele>
        <time>2017-09-24T10:27:19Z</time>
      </trkpt>
      <trkpt lat="50.34192" lon="4.86014">
        <ele>81.85</ele>
        <time>2017-09-24T10:27:45Z</time>
      </trkpt>
      <trkpt lat="50.34206" lon="4.86014">
        <ele>85.21</ele>
        <time>2017-09-24T10:28:03Z</time>
      </trkpt>
      <trkpt lat="50.34208" lon="4.8602">
        <ele>85.69</ele>
        <time>2017-09-24T10:28:24Z</time>
      </trkpt>
      <trkpt lat="50.34208" lon="4.86018">
        <ele>85.69</ele>
        <time>2017-09-24T10:28:58Z</time>
      </trkpt>
      <trkpt lat="50.34212" lon="4.86003">
        <ele>82.81</ele>
        <time>2017-09-24T10:29:07Z</time>
      </trkpt>
      <trkpt lat="50.34229" lon="4.85974">
        <ele>82.81</ele>
        <time>2017-09-24T10:29:24Z</time>
      </trkpt>
      <trkpt lat="50.34227" lon="4.85977">
        <ele>82.33</ele>
        <time>2017-09-24T10:29:39Z</time>
      </trkpt>
      <trkpt lat="50.34246" lon="4.85958">
        <ele>82.33</ele>
        <time>2017-09-24T10:29:58Z</time>
      </trkpt>
      <trkpt lat="50.34265" lon="4.85941">
        <ele>81.85</ele>
        <time>2017-09-24T10:30:17Z</time>
      </trkpt>
      <trkpt lat="50.34288" lon="4.85918">
        <ele>81.85</ele>
        <time>2017-09-24T10:30:39Z</time>
      </trkpt>
      <trkpt lat="50.34311" lon="4.85894">
        <ele>81.85</ele>
        <time>2017-09-24T10:31:02Z</time>
      </trkpt>
      <trkpt lat="50.34328" lon="4.85875">
        <ele>81.85</ele>
        <time>2017-09-24T10:31:21Z</time>
      </trkpt>
      <trkpt lat="50.34353" lon="4.85848">
        <ele>81.85</ele>
        <time>2017-09-24T10:31:45Z</time>
      </trkpt>
      <trkpt lat="50.34374" lon="4.85823">
        <ele>81.37</ele>
        <time>2017-09-24T10:32:08Z</time>
      </trkpt>
      <trkpt lat="50.34392" lon="4.85811">
        <ele>81.37</ele>
        <time>2017-09-24T10:32:24Z</time>
      </trkpt>
      <trkpt lat="50.34412" lon="4.85787">
        <ele>81.37</ele>
        <time>2017-09-24T10:32:45Z</time>
      </trkpt>
      <trkpt lat="50.34432" lon="4.8577">
        <ele>81.37</ele>
        <time>2017-09-24T10:33:06Z</time>
      </trkpt>
      <trkpt lat="50.3445" lon="4.85746">
        <ele>80.89</ele>
        <time>2017-09-24T10:33:27Z</time>
      </trkpt>
      <trkpt lat="50.34476" lon="4.85724">
        <ele>80.89</ele>
        <time>2017-09-24T10:33:48Z</time>
      </trkpt>
      <trkpt lat="50.34496" lon="4.85699">
        <ele>80.89</ele>
        <time>2017-09-24T10:34:08Z</time>
      </trkpt>
      <trkpt lat="50.34519" lon="4.85676">
        <ele>80.89</ele>
        <time>2017-09-24T10:34:31Z</time>
      </trkpt>
      <trkpt lat="50.34532" lon="4.85664">
        <ele>80.89</ele>
        <time>2017-09-24T10:34:43Z</time>
      </trkpt>
      <trkpt lat="50.34549" lon="4.85642">
        <ele>80.41</ele>
        <time>2017-09-24T10:35:02Z</time>
      </trkpt>
      <trkpt lat="50.3457" lon="4.85612">
        <ele>81.85</ele>
        <time>2017-09-24T10:35:27Z</time>
      </trkpt>
      <trkpt lat="50.34589" lon="4.85593">
        <ele>81.37</ele>
        <time>2017-09-24T10:35:47Z</time>
      </trkpt>
      <trkpt lat="50.3461" lon="4.8557">
        <ele>81.37</ele>
        <time>2017-09-24T10:36:09Z</time>
      </trkpt>
      <trkpt lat="50.34637" lon="4.85546">
        <ele>81.37</ele>
        <time>2017-09-24T10:36:34Z</time>
      </trkpt>
      <trkpt lat="50.34657" lon="4.85529">
        <ele>81.37</ele>
        <time>2017-09-24T10:36:55Z</time>
      </trkpt>
      <trkpt lat="50.3468" lon="4.85512">
        <ele>81.37</ele>
        <time>2017-09-24T10:37:14Z</time>
      </trkpt>
      <trkpt lat="50.34706" lon="4.855">
        <ele>80.89</ele>
        <time>2017-09-24T10:37:36Z</time>
      </trkpt>
      <trkpt lat="50.3473" lon="4.85493">
        <ele>80.89</ele>
        <time>2017-09-24T10:37:57Z</time>
      </trkpt>
      <trkpt lat="50.34757" lon="4.85483">
        <ele>80.89</ele>
        <time>2017-09-24T10:38:22Z</time>
      </trkpt>
      <trkpt lat="50.34774" lon="4.85499">
        <ele>80.89</ele>
        <time>2017-09-24T10:38:47Z</time>
      </trkpt>
      <trkpt lat="50.34775" lon="4.85507">
        <ele>81.37</ele>
        <time>2017-09-24T10:39:02Z</time>
      </trkpt>
      <trkpt lat="50.34775" lon="4.85509">
        <ele>81.37</ele>
        <time>2017-09-24T10:39:20Z</time>
      </trkpt>
      <trkpt lat="50.34776" lon="4.85508">
        <ele>81.37</ele>
        <time>2017-09-24T10:39:42Z</time>
      </trkpt>
      <trkpt lat="50.34773" lon="4.85509">
        <ele>81.37</ele>
        <time>2017-09-24T10:40:01Z</time>
      </trkpt>
      <trkpt lat="50.34775" lon="4.85523">
        <ele>81.37</ele>
        <time>2017-09-24T10:40:26Z</time>
      </trkpt>
      <trkpt lat="50.34775" lon="4.85534">
        <ele>81.37</ele>
        <time>2017-09-24T10:40:32Z</time>
      </trkpt>
      <trkpt lat="50.34778" lon="4.85577">
        <ele>81.37</ele>
        <time>2017-09-24T10:40:54Z</time>
      </trkpt>
      <trkpt lat="50.3478" lon="4.85615">
        <ele>81.37</ele>
        <time>2017-09-24T10:41:14Z</time>
      </trkpt>
      <trkpt lat="50.34781" lon="4.85634">
        <ele>81.37</ele>
        <time>2017-09-24T10:41:28Z</time>
      </trkpt>
      <trkpt lat="50.34783" lon="4.85648">
        <ele>81.37</ele>
        <time>2017-09-24T10:41:41Z</time>
      </trkpt>
      <trkpt lat="50.34782" lon="4.85679">
        <ele>81.85</ele>
        <time>2017-09-24T10:42:00Z</time>
      </trkpt>
      <trkpt lat="50.34783" lon="4.8568">
        <ele>81.85</ele>
        <time>2017-09-24T10:42:03Z</time>
      </trkpt>
      <trkpt lat="50.34783" lon="4.85682">
        <ele>81.85</ele>
        <time>2017-09-24T10:42:05Z</time>
      </trkpt>
      <trkpt lat="50.34783" lon="4.85715">
        <ele>82.33</ele>
        <time>2017-09-24T10:42:22Z</time>
      </trkpt>
      <trkpt lat="50.34785" lon="4.85732">
        <ele>83.29</ele>
        <time>2017-09-24T10:42:31Z</time>
      </trkpt>
      <trkpt lat="50.34803" lon="4.85738">
        <ele>83.29</ele>
        <time>2017-09-24T10:42:48Z</time>
      </trkpt>
      <trkpt lat="50.34826" lon="4.85737">
        <ele>83.29</ele>
        <time>2017-09-24T10:43:07Z</time>
      </trkpt>
      <trkpt lat="50.34851" lon="4.85733">
        <ele>83.29</ele>
        <time>2017-09-24T10:43:30Z</time>
      </trkpt>
      <trkpt lat="50.34873" lon="4.85733">
        <ele>83.29</ele>
        <time>2017-09-24T10:43:49Z</time>
      </trkpt>
      <trkpt lat="50.34882" lon="4.85726">
        <ele>83.29</ele>
        <time>2017-09-24T10:44:00Z</time>
      </trkpt>
      <trkpt lat="50.34884" lon="4.85734">
        <ele>83.29</ele>
        <time>2017-09-24T10:44:04Z</time>
      </trkpt>
      <trkpt lat="50.34886" lon="4.85776">
        <ele>83.29</ele>
        <time>2017-09-24T10:44:24Z</time>
      </trkpt>
      <trkpt lat="50.34897" lon="4.85782">
        <ele>83.29</ele>
        <time>2017-09-24T10:44:39Z</time>
      </trkpt>
      <trkpt lat="50.34899" lon="4.85781">
        <ele>83.29</ele>
        <time>2017-09-24T10:44:45Z</time>
      </trkpt>
      <trkpt lat="50.34926" lon="4.85781">
        <ele>83.77</ele>
        <time>2017-09-24T10:45:06Z</time>
      </trkpt>
      <trkpt lat="50.34951" lon="4.85778">
        <ele>82.81</ele>
        <time>2017-09-24T10:45:23Z</time>
      </trkpt>
      <trkpt lat="50.34975" lon="4.85776">
        <ele>81.85</ele>
        <time>2017-09-24T10:45:40Z</time>
      </trkpt>
      <trkpt lat="50.34997" lon="4.85776">
        <ele>80.89</ele>
        <time>2017-09-24T10:45:55Z</time>
      </trkpt>
      <trkpt lat="50.35022" lon="4.85773">
        <ele>80.41</ele>
        <time>2017-09-24T10:46:16Z</time>
      </trkpt>
      <trkpt lat="50.35041" lon="4.85775">
        <ele>79.93</ele>
        <time>2017-09-24T10:46:38Z</time>
      </trkpt>
      <trkpt lat="50.35058" lon="4.85778">
        <ele>79.93</ele>
        <time>2017-09-24T10:46:54Z</time>
      </trkpt>
      <trkpt lat="50.35056" lon="4.85813">
        <ele>79.93</ele>
        <time>2017-09-24T10:47:14Z</time>
      </trkpt>
      <trkpt lat="50.35056" lon="4.85854">
        <ele>79.93</ele>
        <time>2017-09-24T10:47:35Z</time>
      </trkpt>
      <trkpt lat="50.35056" lon="4.85889">
        <ele>79.93</ele>
        <time>2017-09-24T10:47:53Z</time>
      </trkpt>
      <trkpt lat="50.35056" lon="4.85922">
        <ele>79.93</ele>
        <time>2017-09-24T10:48:13Z</time>
      </trkpt>
      <trkpt lat="50.35054" lon="4.85956">
        <ele>79.93</ele>
        <time>2017-09-24T10:48:31Z</time>
      </trkpt>
      <trkpt lat="50.35054" lon="4.85967">
        <ele>79.93</ele>
        <time>2017-09-24T10:48:36Z</time>
      </trkpt>
      <trkpt lat="50.35052" lon="4.86001">
        <ele>79.93</ele>
        <time>2017-09-24T10:48:53Z</time>
      </trkpt>
      <trkpt lat="50.3505" lon="4.86034">
        <ele>79.93</ele>
        <time>2017-09-24T10:49:10Z</time>
      </trkpt>
      <trkpt lat="50.35053" lon="4.86066">
        <ele>79.45</ele>
        <time>2017-09-24T10:49:29Z</time>
      </trkpt>
      <trkpt lat="50.35052" lon="4.8609">
        <ele>79.45</ele>
        <time>2017-09-24T10:49:40Z</time>
      </trkpt>
      <trkpt lat="50.35052" lon="4.86093">
        <ele>79.45</ele>
        <time>2017-09-24T10:49:41Z</time>
      </trkpt>
      <trkpt lat="50.3505" lon="4.86136">
        <ele>79.45</ele>
        <time>2017-09-24T10:50:04Z</time>
      </trkpt>
      <trkpt lat="50.3505" lon="4.86175">
        <ele>79.45</ele>
        <time>2017-09-24T10:50:24Z</time>
      </trkpt>
      <trkpt lat="50.35049" lon="4.86208">
        <ele>79.45</ele>
        <time>2017-09-24T10:50:42Z</time>
      </trkpt>
      <trkpt lat="50.35045" lon="4.86243">
        <ele>79.45</ele>
        <time>2017-09-24T10:51:01Z</time>
      </trkpt>
      <trkpt lat="50.35044" lon="4.86286">
        <ele>79.45</ele>
        <time>2017-09-24T10:51:23Z</time>
      </trkpt>
      <trkpt lat="50.35041" lon="4.86328">
        <ele>79.45</ele>
        <time>2017-09-24T10:51:45Z</time>
      </trkpt>
      <trkpt lat="50.35038" lon="4.86372">
        <ele>79.45</ele>
        <time>2017-09-24T10:52:08Z</time>
      </trkpt>
      <trkpt lat="50.35036" lon="4.86406">
        <ele>79.45</ele>
        <time>2017-09-24T10:52:26Z</time>
      </trkpt>
      <trkpt lat="50.35033" lon="4.86449">
        <ele>79.45</ele>
        <time>2017-09-24T10:52:49Z</time>
      </trkpt>
      <trkpt lat="50.3503" lon="4.86496">
        <ele>79.45</ele>
        <time>2017-09-24T10:53:13Z</time>
      </trkpt>
      <trkpt lat="50.35026" lon="4.86542">
        <ele>79.45</ele>
        <time>2017-09-24T10:53:38Z</time>
      </trkpt>
      <trkpt lat="50.35026" lon="4.86544">
        <ele>79.45</ele>
        <time>2017-09-24T10:53:39Z</time>
      </trkpt>
      <trkpt lat="50.35026" lon="4.86546">
        <ele>79.45</ele>
        <time>2017-09-24T10:53:40Z</time>
      </trkpt>
      <trkpt lat="50.35026" lon="4.86548">
        <ele>79.45</ele>
        <time>2017-09-24T10:53:41Z</time>
      </trkpt>
      <trkpt lat="50.35026" lon="4.8655">
        <ele>79.45</ele>
        <time>2017-09-24T10:53:42Z</time>
      </trkpt>
      <trkpt lat="50.35024" lon="4.86589">
        <ele>79.45</ele>
        <time>2017-09-24T10:54:03Z</time>
      </trkpt>
      <trkpt lat="50.35024" lon="4.86631">
        <ele>79.45</ele>
        <time>2017-09-24T10:54:25Z</time>
      </trkpt>
      <trkpt lat="50.35021" lon="4.86672">
        <ele>79.45</ele>
        <time>2017-09-24T10:54:47Z</time>
      </trkpt>
      <trkpt lat="50.35022" lon="4.8668">
        <ele>79.45</ele>
        <time>2017-09-24T10:55:05Z</time>
      </trkpt>
      <trkpt lat="50.35018" lon="4.8668">
        <ele>80.41</ele>
        <time>2017-09-24T10:55:12Z</time>
      </trkpt>
      <trkpt lat="50.35011" lon="4.86685">
        <ele>81.37</ele>
        <time>2017-09-24T10:55:33Z</time>
      </trkpt>
      <trkpt lat="50.35004" lon="4.86685">
        <ele>84.73</ele>
        <time>2017-09-24T10:55:48Z</time>
      </trkpt>
      <trkpt lat="50.34997" lon="4.86684">
        <ele>85.69</ele>
        <time>2017-09-24T10:56:04Z</time>
      </trkpt>
      <trkpt lat="50.35" lon="4.86683">
        <ele>86.18</ele>
        <time>2017-09-24T10:56:19Z</time>
      </trkpt>
      <trkpt lat="50.35001" lon="4.86684">
        <ele>86.18</ele>
        <time>2017-09-24T10:56:40Z</time>
      </trkpt>
      <trkpt lat="50.34997" lon="4.86685">
        <ele>86.18</ele>
        <time>2017-09-24T10:56:58Z</time>
      </trkpt>
      <trkpt lat="50.34985" lon="4.8669">
        <ele>86.66</ele>
        <time>2017-09-24T10:57:13Z</time>
      </trkpt>
      <trkpt lat="50.34988" lon="4.86685">
        <ele>86.66</ele>
        <time>2017-09-24T10:57:44Z</time>
      </trkpt>
      <trkpt lat="50.34976" lon="4.86694">
        <ele>86.66</ele>
        <time>2017-09-24T10:57:59Z</time>
      </trkpt>
      <trkpt lat="50.34973" lon="4.86695">
        <ele>87.14</ele>
        <time>2017-09-24T10:58:17Z</time>
      </trkpt>
      <trkpt lat="50.34973" lon="4.86708">
        <ele>87.14</ele>
        <time>2017-09-24T10:58:33Z</time>
      </trkpt>
      <trkpt lat="50.34971" lon="4.86713">
        <ele>87.14</ele>
        <time>2017-09-24T10:58:47Z</time>
      </trkpt>
      <trkpt lat="50.3496" lon="4.86746">
        <ele>87.14</ele>
        <time>2017-09-24T10:59:09Z</time>
      </trkpt>
      <trkpt lat="50.34955" lon="4.86735">
        <ele>87.62</ele>
        <time>2017-09-24T10:59:26Z</time>
      </trkpt>
      <trkpt lat="50.34952" lon="4.8672">
        <ele>88.1</ele>
        <time>2017-09-24T10:59:43Z</time>
      </trkpt>
      <trkpt lat="50.34952" lon="4.86719">
        <ele>88.1</ele>
        <time>2017-09-24T10:59:58Z</time>
      </trkpt>
      <trkpt lat="50.34949" lon="4.86716">
        <ele>87.62</ele>
        <time>2017-09-24T11:00:19Z</time>
      </trkpt>
      <trkpt lat="50.3495" lon="4.86713">
        <ele>87.62</ele>
        <time>2017-09-24T11:00:37Z</time>
      </trkpt>
      <trkpt lat="50.34949" lon="4.86711">
        <ele>87.62</ele>
        <time>2017-09-24T11:00:57Z</time>
      </trkpt>
      <trkpt lat="50.34946" lon="4.86708">
        <ele>87.62</ele>
        <time>2017-09-24T11:01:13Z</time>
      </trkpt>
      <trkpt lat="50.34945" lon="4.86711">
        <ele>87.62</ele>
        <time>2017-09-24T11:01:32Z</time>
      </trkpt>
      <trkpt lat="50.34941" lon="4.86708">
        <ele>87.62</ele>
        <time>2017-09-24T11:01:47Z</time>
      </trkpt>
      <trkpt lat="50.34941" lon="4.86706">
        <ele>87.62</ele>
        <time>2017-09-24T11:02:04Z</time>
      </trkpt>
      <trkpt lat="50.34938" lon="4.86703">
        <ele>87.62</ele>
        <time>2017-09-24T11:02:23Z</time>
      </trkpt>
      <trkpt lat="50.34937" lon="4.86704">
        <ele>87.62</ele>
        <time>2017-09-24T11:02:40Z</time>
      </trkpt>
      <trkpt lat="50.34935" lon="4.86701">
        <ele>87.62</ele>
        <time>2017-09-24T11:02:54Z</time>
      </trkpt>
      <trkpt lat="50.34936" lon="4.86701">
        <ele>87.62</ele>
        <time>2017-09-24T11:03:08Z</time>
      </trkpt>
      <trkpt lat="50.34938" lon="4.86706">
        <ele>87.62</ele>
        <time>2017-09-24T11:03:24Z</time>
      </trkpt>
      <trkpt lat="50.34943" lon="4.86713">
        <ele>87.62</ele>
        <time>2017-09-24T11:03:41Z</time>
      </trkpt>
      <trkpt lat="50.34945" lon="4.86717">
        <ele>87.62</ele>
        <time>2017-09-24T11:03:55Z</time>
      </trkpt>
      <trkpt lat="50.34952" lon="4.86728">
        <ele>87.62</ele>
        <time>2017-09-24T11:04:09Z</time>
      </trkpt>
      <trkpt lat="50.34957" lon="4.86744">
        <ele>86.66</ele>
        <time>2017-09-24T11:04:21Z</time>
      </trkpt>
      <trkpt lat="50.34958" lon="4.8675">
        <ele>86.66</ele>
        <time>2017-09-24T11:04:24Z</time>
      </trkpt>
      <trkpt lat="50.34961" lon="4.86794">
        <ele>85.69</ele>
        <time>2017-09-24T11:04:47Z</time>
      </trkpt>
      <trkpt lat="50.34968" lon="4.86836">
        <ele>85.69</ele>
        <time>2017-09-24T11:05:08Z</time>
      </trkpt>
      <trkpt lat="50.34975" lon="4.86873">
        <ele>85.69</ele>
        <time>2017-09-24T11:05:30Z</time>
      </trkpt>
      <trkpt lat="50.34989" lon="4.86878">
        <ele>84.25</ele>
        <time>2017-09-24T11:05:48Z</time>
      </trkpt>
      <trkpt lat="50.35006" lon="4.86879">
        <ele>80.41</ele>
        <time>2017-09-24T11:06:08Z</time>
      </trkpt>
      <trkpt lat="50.35009" lon="4.86884">
        <ele>80.41</ele>
        <time>2017-09-24T11:06:11Z</time>
      </trkpt>
      <trkpt lat="50.35015" lon="4.86919">
        <ele>79.45</ele>
        <time>2017-09-24T11:06:30Z</time>
      </trkpt>
      <trkpt lat="50.35019" lon="4.86957">
        <ele>78.97</ele>
        <time>2017-09-24T11:06:49Z</time>
      </trkpt>
      <trkpt lat="50.35022" lon="4.86998">
        <ele>78.97</ele>
        <time>2017-09-24T11:07:10Z</time>
      </trkpt>
      <trkpt lat="50.35026" lon="4.87038">
        <ele>78.97</ele>
        <time>2017-09-24T11:07:30Z</time>
      </trkpt>
      <trkpt lat="50.35033" lon="4.87083">
        <ele>78.97</ele>
        <time>2017-09-24T11:07:54Z</time>
      </trkpt>
      <trkpt lat="50.35036" lon="4.87123">
        <ele>78.97</ele>
        <time>2017-09-24T11:08:15Z</time>
      </trkpt>
      <trkpt lat="50.3504" lon="4.87164">
        <ele>78.97</ele>
        <time>2017-09-24T11:08:35Z</time>
      </trkpt>
      <trkpt lat="50.35045" lon="4.87201">
        <ele>78.97</ele>
        <time>2017-09-24T11:08:55Z</time>
      </trkpt>
      <trkpt lat="50.35041" lon="4.8723">
        <ele>79.93</ele>
        <time>2017-09-24T11:09:14Z</time>
      </trkpt>
      <trkpt lat="50.35037" lon="4.87233">
        <ele>82.81</ele>
        <time>2017-09-24T11:09:34Z</time>
      </trkpt>
      <trkpt lat="50.35033" lon="4.87229">
        <ele>83.29</ele>
        <time>2017-09-24T11:09:53Z</time>
      </trkpt>
      <trkpt lat="50.3503" lon="4.87222">
        <ele>83.29</ele>
        <time>2017-09-24T11:10:11Z</time>
      </trkpt>
      <trkpt lat="50.35033" lon="4.87221">
        <ele>83.29</ele>
        <time>2017-09-24T11:10:39Z</time>
      </trkpt>
      <trkpt lat="50.35035" lon="4.87223">
        <ele>83.29</ele>
        <time>2017-09-24T11:11:01Z</time>
      </trkpt>
      <trkpt lat="50.35032" lon="4.87223">
        <ele>82.81</ele>
        <time>2017-09-24T11:11:31Z</time>
      </trkpt>
      <trkpt lat="50.3503" lon="4.87222">
        <ele>81.85</ele>
        <time>2017-09-24T11:11:35Z</time>
      </trkpt>
      <trkpt lat="50.35029" lon="4.87221">
        <ele>83.29</ele>
        <time>2017-09-24T11:11:37Z</time>
      </trkpt>
      <trkpt lat="50.35035" lon="4.87221">
        <ele>83.29</ele>
        <time>2017-09-24T11:11:59Z</time>
      </trkpt>
      <trkpt lat="50.35034" lon="4.87226">
        <ele>83.29</ele>
        <time>2017-09-24T11:12:23Z</time>
      </trkpt>
      <trkpt lat="50.35036" lon="4.87227">
        <ele>82.81</ele>
        <time>2017-09-24T11:12:47Z</time>
      </trkpt>
      <trkpt lat="50.35035" lon="4.87224">
        <ele>82.81</ele>
        <time>2017-09-24T11:13:08Z</time>
      </trkpt>
      <trkpt lat="50.35036" lon="4.87224">
        <ele>81.85</ele>
        <time>2017-09-24T11:13:36Z</time>
      </trkpt>
      <trkpt lat="50.3504" lon="4.87223">
        <ele>81.85</ele>
        <time>2017-09-24T11:14:10Z</time>
      </trkpt>
      <trkpt lat="50.35035" lon="4.87223">
        <ele>81.85</ele>
        <time>2017-09-24T11:14:41Z</time>
      </trkpt>
      <trkpt lat="50.35036" lon="4.87222">
        <ele>81.85</ele>
        <time>2017-09-24T11:15:14Z</time>
      </trkpt>
      <trkpt lat="50.35031" lon="4.87222">
        <ele>81.37</ele>
        <time>2017-09-24T11:15:43Z</time>
      </trkpt>
      <trkpt lat="50.35033" lon="4.87221">
        <ele>81.37</ele>
        <time>2017-09-24T11:16:09Z</time>
      </trkpt>
      <trkpt lat="50.35036" lon="4.87219">
        <ele>81.37</ele>
        <time>2017-09-24T11:16:35Z</time>
      </trkpt>
      <trkpt lat="50.3503" lon="4.87222">
        <ele>81.37</ele>
        <time>2017-09-24T11:16:48Z</time>
      </trkpt>
      <trkpt lat="50.3503" lon="4.87227">
        <ele>81.37</ele>
        <time>2017-09-24T11:17:08Z</time>
      </trkpt>
      <trkpt lat="50.35036" lon="4.87226">
        <ele>81.37</ele>
        <time>2017-09-24T11:17:41Z</time>
      </trkpt>
      <trkpt lat="50.35038" lon="4.87226">
        <ele>81.37</ele>
        <time>2017-09-24T11:18:11Z</time>
      </trkpt>
      <trkpt lat="50.35038" lon="4.87222">
        <ele>81.37</ele>
        <time>2017-09-24T11:18:44Z</time>
      </trkpt>
      <trkpt lat="50.35034" lon="4.87236">
        <ele>81.37</ele>
        <time>2017-09-24T11:19:15Z</time>
      </trkpt>
      <trkpt lat="50.35039" lon="4.87232">
        <ele>81.37</ele>
        <time>2017-09-24T11:19:49Z</time>
      </trkpt>
      <trkpt lat="50.35037" lon="4.87233">
        <ele>81.37</ele>
        <time>2017-09-24T11:20:16Z</time>
      </trkpt>
      <trkpt lat="50.35035" lon="4.87232">
        <ele>81.37</ele>
        <time>2017-09-24T11:20:41Z</time>
      </trkpt>
      <trkpt lat="50.35034" lon="4.87229">
        <ele>81.37</ele>
        <time>2017-09-24T11:21:15Z</time>
      </trkpt>
      <trkpt lat="50.35036" lon="4.87225">
        <ele>81.37</ele>
        <time>2017-09-24T11:21:44Z</time>
      </trkpt>
      <trkpt lat="50.35038" lon="4.87224">
        <ele>81.37</ele>
        <time>2017-09-24T11:22:14Z</time>
      </trkpt>
      <trkpt lat="50.35035" lon="4.87224">
        <ele>81.37</ele>
        <time>2017-09-24T11:22:46Z</time>
      </trkpt>
      <trkpt lat="50.35035" lon="4.87228">
        <ele>81.37</ele>
        <time>2017-09-24T11:23:21Z</time>
      </trkpt>
      <trkpt lat="50.35035" lon="4.87228">
        <ele>81.37</ele>
        <time>2017-09-24T11:23:56Z</time>
      </trkpt>
      <trkpt lat="50.35036" lon="4.87229">
        <ele>81.85</ele>
        <time>2017-09-24T11:24:27Z</time>
      </trkpt>
      <trkpt lat="50.35039" lon="4.87231">
        <ele>81.37</ele>
        <time>2017-09-24T11:24:58Z</time>
      </trkpt>
      <trkpt lat="50.35037" lon="4.87227">
        <ele>81.37</ele>
        <time>2017-09-24T11:25:23Z</time>
      </trkpt>
      <trkpt lat="50.35047" lon="4.87231">
        <ele>81.37</ele>
        <time>2017-09-24T11:25:51Z</time>
      </trkpt>
      <trkpt lat="50.35036" lon="4.87224">
        <ele>81.85</ele>
        <time>2017-09-24T11:26:25Z</time>
      </trkpt>
      <trkpt lat="50.35034" lon="4.87226">
        <ele>81.85</ele>
        <time>2017-09-24T11:26:54Z</time>
      </trkpt>
      <trkpt lat="50.35036" lon="4.87228">
        <ele>81.85</ele>
        <time>2017-09-24T11:27:28Z</time>
      </trkpt>
      <trkpt lat="50.35034" lon="4.87226">
        <ele>81.85</ele>
        <time>2017-09-24T11:28:05Z</time>
      </trkpt>
      <trkpt lat="50.35035" lon="4.8723">
        <ele>81.85</ele>
        <time>2017-09-24T11:28:45Z</time>
      </trkpt>
      <trkpt lat="50.35032" lon="4.8723">
        <ele>81.85</ele>
        <time>2017-09-24T11:29:13Z</time>
      </trkpt>
      <trkpt lat="50.35034" lon="4.87224">
        <ele>81.85</ele>
        <time>2017-09-24T11:29:49Z</time>
      </trkpt>
      <trkpt lat="50.35036" lon="4.87225">
        <ele>81.85</ele>
        <time>2017-09-24T11:30:22Z</time>
      </trkpt>
      <trkpt lat="50.35037" lon="4.8723">
        <ele>81.85</ele>
        <time>2017-09-24T11:31:00Z</time>
      </trkpt>
      <trkpt lat="50.35037" lon="4.87231">
        <ele>81.85</ele>
        <time>2017-09-24T11:31:37Z</time>
      </trkpt>
      <trkpt lat="50.35036" lon="4.8723">
        <ele>81.85</ele>
        <time>2017-09-24T11:32:00Z</time>
      </trkpt>
      <trkpt lat="50.35034" lon="4.87229">
        <ele>81.85</ele>
        <time>2017-09-24T11:32:29Z</time>
      </trkpt>
      <trkpt lat="50.35037" lon="4.87225">
        <ele>81.85</ele>
        <time>2017-09-24T11:33:01Z</time>
      </trkpt>
      <trkpt lat="50.35038" lon="4.87223">
        <ele>82.33</ele>
        <time>2017-09-24T11:33:44Z</time>
      </trkpt>
      <trkpt lat="50.35037" lon="4.87221">
        <ele>82.33</ele>
        <time>2017-09-24T11:34:17Z</time>
      </trkpt>
      <trkpt lat="50.35036" lon="4.87221">
        <ele>82.33</ele>
        <time>2017-09-24T11:34:55Z</time>
      </trkpt>
      <trkpt lat="50.35034" lon="4.87229">
        <ele>82.33</ele>
        <time>2017-09-24T11:35:31Z</time>
      </trkpt>
      <trkpt lat="50.35036" lon="4.87224">
        <ele>83.29</ele>
        <time>2017-09-24T11:36:10Z</time>
      </trkpt>
      <trkpt lat="50.35037" lon="4.87227">
        <ele>83.29</ele>
        <time>2017-09-24T11:36:41Z</time>
      </trkpt>
      <trkpt lat="50.35037" lon="4.8723">
        <ele>83.77</ele>
        <time>2017-09-24T11:37:12Z</time>
      </trkpt>
      <trkpt lat="50.35033" lon="4.87226">
        <ele>83.77</ele>
        <time>2017-09-24T11:37:40Z</time>
      </trkpt>
      <trkpt lat="50.3503" lon="4.87226">
        <ele>83.77</ele>
        <time>2017-09-24T11:38:14Z</time>
      </trkpt>
      <trkpt lat="50.35032" lon="4.87223">
        <ele>83.77</ele>
        <time>2017-09-24T11:38:45Z</time>
      </trkpt>
      <trkpt lat="50.35032" lon="4.8722">
        <ele>83.29</ele>
        <time>2017-09-24T11:39:18Z</time>
      </trkpt>
      <trkpt lat="50.35033" lon="4.87224">
        <ele>83.29</ele>
        <time>2017-09-24T11:39:53Z</time>
      </trkpt>
      <trkpt lat="50.35035" lon="4.87229">
        <ele>83.77</ele>
        <time>2017-09-24T11:40:25Z</time>
      </trkpt>
      <trkpt lat="50.35035" lon="4.87229">
        <ele>83.77</ele>
        <time>2017-09-24T11:41:01Z</time>
      </trkpt>
      <trkpt lat="50.35032" lon="4.87228">
        <ele>83.77</ele>
        <time>2017-09-24T11:41:36Z</time>
      </trkpt>
      <trkpt lat="50.35031" lon="4.87224">
        <ele>83.77</ele>
        <time>2017-09-24T11:42:15Z</time>
      </trkpt>
      <trkpt lat="50.35032" lon="4.87223">
        <ele>83.29</ele>
        <time>2017-09-24T11:42:55Z</time>
      </trkpt>
      <trkpt lat="50.35032" lon="4.87222">
        <ele>83.29</ele>
        <time>2017-09-24T11:43:35Z</time>
      </trkpt>
      <trkpt lat="50.35032" lon="4.87223">
        <ele>83.29</ele>
        <time>2017-09-24T11:44:05Z</time>
      </trkpt>
      <trkpt lat="50.35036" lon="4.8722">
        <ele>83.29</ele>
        <time>2017-09-24T11:44:46Z</time>
      </trkpt>
      <trkpt lat="50.35034" lon="4.87225">
        <ele>83.29</ele>
        <time>2017-09-24T11:45:21Z</time>
      </trkpt>
      <trkpt lat="50.35035" lon="4.87227">
        <ele>82.81</ele>
        <time>2017-09-24T11:46:06Z</time>
      </trkpt>
      <trkpt lat="50.35035" lon="4.87228">
        <ele>82.81</ele>
        <time>2017-09-24T11:46:45Z</time>
      </trkpt>
      <trkpt lat="50.35034" lon="4.87225">
        <ele>83.29</ele>
        <time>2017-09-24T11:47:27Z</time>
      </trkpt>
      <trkpt lat="50.35035" lon="4.87229">
        <ele>83.29</ele>
        <time>2017-09-24T11:48:05Z</time>
      </trkpt>
      <trkpt lat="50.35035" lon="4.8723">
        <ele>83.29</ele>
        <time>2017-09-24T11:48:33Z</time>
      </trkpt>
      <trkpt lat="50.35034" lon="4.87229">
        <ele>83.29</ele>
        <time>2017-09-24T11:48:58Z</time>
      </trkpt>
      <trkpt lat="50.35034" lon="4.87226">
        <ele>82.81</ele>
        <time>2017-09-24T11:49:46Z</time>
      </trkpt>
      <trkpt lat="50.35036" lon="4.87228">
        <ele>82.81</ele>
        <time>2017-09-24T11:50:33Z</time>
      </trkpt>
      <trkpt lat="50.35033" lon="4.87226">
        <ele>82.81</ele>
        <time>2017-09-24T11:51:06Z</time>
      </trkpt>
      <trkpt lat="50.35032" lon="4.87227">
        <ele>82.81</ele>
        <time>2017-09-24T11:51:43Z</time>
      </trkpt>
      <trkpt lat="50.35031" lon="4.87231">
        <ele>83.29</ele>
        <time>2017-09-24T11:52:13Z</time>
      </trkpt>
      <trkpt lat="50.35033" lon="4.87229">
        <ele>83.29</ele>
        <time>2017-09-24T11:52:36Z</time>
      </trkpt>
      <trkpt lat="50.35032" lon="4.87229">
        <ele>83.29</ele>
        <time>2017-09-24T11:53:02Z</time>
      </trkpt>
      <trkpt lat="50.35027" lon="4.87227">
        <ele>83.29</ele>
        <time>2017-09-24T11:53:36Z</time>
      </trkpt>
      <trkpt lat="50.35033" lon="4.87226">
        <ele>83.29</ele>
        <time>2017-09-24T11:54:05Z</time>
      </trkpt>
      <trkpt lat="50.35032" lon="4.87223">
        <ele>83.29</ele>
        <time>2017-09-24T11:54:37Z</time>
      </trkpt>
      <trkpt lat="50.35035" lon="4.87228">
        <ele>83.29</ele>
        <time>2017-09-24T11:55:09Z</time>
      </trkpt>
      <trkpt lat="50.35036" lon="4.87228">
        <ele>83.77</ele>
        <time>2017-09-24T11:55:33Z</time>
      </trkpt>
      <trkpt lat="50.35037" lon="4.87226">
        <ele>83.77</ele>
        <time>2017-09-24T11:56:09Z</time>
      </trkpt>
      <trkpt lat="50.35035" lon="4.87225">
        <ele>84.25</ele>
        <time>2017-09-24T11:56:37Z</time>
      </trkpt>
      <trkpt lat="50.35034" lon="4.87227">
        <ele>84.25</ele>
        <time>2017-09-24T11:57:00Z</time>
      </trkpt>
      <trkpt lat="50.35034" lon="4.87229">
        <ele>84.25</ele>
        <time>2017-09-24T11:57:24Z</time>
      </trkpt>
      <trkpt lat="50.35037" lon="4.87229">
        <ele>84.25</ele>
        <time>2017-09-24T11:57:50Z</time>
      </trkpt>
      <trkpt lat="50.35037" lon="4.87227">
        <ele>84.25</ele>
        <time>2017-09-24T11:58:14Z</time>
      </trkpt>
      <trkpt lat="50.35038" lon="4.87229">
        <ele>84.25</ele>
        <time>2017-09-24T11:58:35Z</time>
      </trkpt>
      <trkpt lat="50.35038" lon="4.87228">
        <ele>84.25</ele>
        <time>2017-09-24T11:58:58Z</time>
      </trkpt>
      <trkpt lat="50.35042" lon="4.87232">
        <ele>84.25</ele>
        <time>2017-09-24T11:59:20Z</time>
      </trkpt>
      <trkpt lat="50.35029" lon="4.87227">
        <ele>84.25</ele>
        <time>2017-09-24T11:59:47Z</time>
      </trkpt>
      <trkpt lat="50.35027" lon="4.87232">
        <ele>84.25</ele>
        <time>2017-09-24T12:00:12Z</time>
      </trkpt>
      <trkpt lat="50.35031" lon="4.87234">
        <ele>84.25</ele>
        <time>2017-09-24T12:00:38Z</time>
      </trkpt>
      <trkpt lat="50.35029" lon="4.87226">
        <ele>84.25</ele>
        <time>2017-09-24T12:01:03Z</time>
      </trkpt>
      <trkpt lat="50.35033" lon="4.87226">
        <ele>84.25</ele>
        <time>2017-09-24T12:01:30Z</time>
      </trkpt>
      <trkpt lat="50.35033" lon="4.87227">
        <ele>84.25</ele>
        <time>2017-09-24T12:01:57Z</time>
      </trkpt>
      <trkpt lat="50.35031" lon="4.87235">
        <ele>83.77</ele>
        <time>2017-09-24T12:02:22Z</time>
      </trkpt>
      <trkpt lat="50.35039" lon="4.87234">
        <ele>83.77</ele>
        <time>2017-09-24T12:02:46Z</time>
      </trkpt>
      <trkpt lat="50.35028" lon="4.87218">
        <ele>83.77</ele>
        <time>2017-09-24T12:03:06Z</time>
      </trkpt>
      <trkpt lat="50.35029" lon="4.87215">
        <ele>83.77</ele>
        <time>2017-09-24T12:03:32Z</time>
      </trkpt>
      <trkpt lat="50.3503" lon="4.87225">
        <ele>83.77</ele>
        <time>2017-09-24T12:03:52Z</time>
      </trkpt>
      <trkpt lat="50.35024" lon="4.87238">
        <ele>83.77</ele>
        <time>2017-09-24T12:04:12Z</time>
      </trkpt>
      <trkpt lat="50.35025" lon="4.87241">
        <ele>83.77</ele>
        <time>2017-09-24T12:04:30Z</time>
      </trkpt>
      <trkpt lat="50.35031" lon="4.87243">
        <ele>83.77</ele>
        <time>2017-09-24T12:04:52Z</time>
      </trkpt>
      <trkpt lat="50.35035" lon="4.8724">
        <ele>84.25</ele>
        <time>2017-09-24T12:05:21Z</time>
      </trkpt>
      <trkpt lat="50.35036" lon="4.87237">
        <ele>84.25</ele>
        <time>2017-09-24T12:05:43Z</time>
      </trkpt>
      <trkpt lat="50.35028" lon="4.87237">
        <ele>83.77</ele>
        <time>2017-09-24T12:06:16Z</time>
      </trkpt>
      <trkpt lat="50.35021" lon="4.87243">
        <ele>84.73</ele>
        <time>2017-09-24T12:06:36Z</time>
      </trkpt>
      <trkpt lat="50.35025" lon="4.8724">
        <ele>84.73</ele>
        <time>2017-09-24T12:06:58Z</time>
      </trkpt>
      <trkpt lat="50.35027" lon="4.87237">
        <ele>84.73</ele>
        <time>2017-09-24T12:07:15Z</time>
      </trkpt>
      <trkpt lat="50.35028" lon="4.87241">
        <ele>84.73</ele>
        <time>2017-09-24T12:07:38Z</time>
      </trkpt>
      <trkpt lat="50.35026" lon="4.87237">
        <ele>84.73</ele>
        <time>2017-09-24T12:08:02Z</time>
      </trkpt>
      <trkpt lat="50.35027" lon="4.87237">
        <ele>84.73</ele>
        <time>2017-09-24T12:08:25Z</time>
      </trkpt>
      <trkpt lat="50.35022" lon="4.87241">
        <ele>84.25</ele>
        <time>2017-09-24T12:08:51Z</time>
      </trkpt>
      <trkpt lat="50.35023" lon="4.87242">
        <ele>84.25</ele>
        <time>2017-09-24T12:09:07Z</time>
      </trkpt>
      <trkpt lat="50.35026" lon="4.8724">
        <ele>84.73</ele>
        <time>2017-09-24T12:09:23Z</time>
      </trkpt>
      <trkpt lat="50.35029" lon="4.87237">
        <ele>84.73</ele>
        <time>2017-09-24T12:09:48Z</time>
      </trkpt>
      <trkpt lat="50.35029" lon="4.87242">
        <ele>84.73</ele>
        <time>2017-09-24T12:10:10Z</time>
      </trkpt>
      <trkpt lat="50.35033" lon="4.87241">
        <ele>83.77</ele>
        <time>2017-09-24T12:10:26Z</time>
      </trkpt>
      <trkpt lat="50.35043" lon="4.87234">
        <ele>80.41</ele>
        <time>2017-09-24T12:10:45Z</time>
      </trkpt>
      <trkpt lat="50.35047" lon="4.87242">
        <ele>79.93</ele>
        <time>2017-09-24T12:10:52Z</time>
      </trkpt>
      <trkpt lat="50.35049" lon="4.87275">
        <ele>79.93</ele>
        <time>2017-09-24T12:11:10Z</time>
      </trkpt>
      <trkpt lat="50.35053" lon="4.87317">
        <ele>79.93</ele>
        <time>2017-09-24T12:11:34Z</time>
      </trkpt>
      <trkpt lat="50.35052" lon="4.87359">
        <ele>79.93</ele>
        <time>2017-09-24T12:11:56Z</time>
      </trkpt>
      <trkpt lat="50.35055" lon="4.87403">
        <ele>81.37</ele>
        <time>2017-09-24T12:12:21Z</time>
      </trkpt>
      <trkpt lat="50.35061" lon="4.87421">
        <ele>81.85</ele>
        <time>2017-09-24T12:12:32Z</time>
      </trkpt>
      <trkpt lat="50.35066" lon="4.8743">
        <ele>80.41</ele>
        <time>2017-09-24T12:12:39Z</time>
      </trkpt>
      <trkpt lat="50.35073" lon="4.87462">
        <ele>79.93</ele>
        <time>2017-09-24T12:12:56Z</time>
      </trkpt>
      <trkpt lat="50.35083" lon="4.87503">
        <ele>79.45</ele>
        <time>2017-09-24T12:13:19Z</time>
      </trkpt>
      <trkpt lat="50.35092" lon="4.87546">
        <ele>79.45</ele>
        <time>2017-09-24T12:13:43Z</time>
      </trkpt>
      <trkpt lat="50.35107" lon="4.87586">
        <ele>79.45</ele>
        <time>2017-09-24T12:14:08Z</time>
      </trkpt>
      <trkpt lat="50.3512" lon="4.8761">
        <ele>80.41</ele>
        <time>2017-09-24T12:14:27Z</time>
      </trkpt>
      <trkpt lat="50.35147" lon="4.87647">
        <ele>79.45</ele>
        <time>2017-09-24T12:14:53Z</time>
      </trkpt>
      <trkpt lat="50.35165" lon="4.87673">
        <ele>78.97</ele>
        <time>2017-09-24T12:15:15Z</time>
      </trkpt>
      <trkpt lat="50.35187" lon="4.877">
        <ele>78.97</ele>
        <time>2017-09-24T12:15:39Z</time>
      </trkpt>
      <trkpt lat="50.35208" lon="4.87724">
        <ele>78.97</ele>
        <time>2017-09-24T12:16:01Z</time>
      </trkpt>
      <trkpt lat="50.35228" lon="4.87749">
        <ele>78.97</ele>
        <time>2017-09-24T12:16:24Z</time>
      </trkpt>
      <trkpt lat="50.35249" lon="4.87776">
        <ele>78.97</ele>
        <time>2017-09-24T12:16:48Z</time>
      </trkpt>
      <trkpt lat="50.35275" lon="4.87808">
        <ele>78.48</ele>
        <time>2017-09-24T12:17:12Z</time>
      </trkpt>
      <trkpt lat="50.35296" lon="4.87837">
        <ele>78.48</ele>
        <time>2017-09-24T12:17:34Z</time>
      </trkpt>
      <trkpt lat="50.35315" lon="4.87865">
        <ele>78.48</ele>
        <time>2017-09-24T12:17:56Z</time>
      </trkpt>
      <trkpt lat="50.35333" lon="4.87894">
        <ele>78.48</ele>
        <time>2017-09-24T12:18:17Z</time>
      </trkpt>
      <trkpt lat="50.35352" lon="4.87909">
        <ele>78</ele>
        <time>2017-09-24T12:18:37Z</time>
      </trkpt>
      <trkpt lat="50.35357" lon="4.87912">
        <ele>78</ele>
        <time>2017-09-24T12:18:42Z</time>
      </trkpt>
      <trkpt lat="50.35383" lon="4.87925">
        <ele>78</ele>
        <time>2017-09-24T12:19:05Z</time>
      </trkpt>
      <trkpt lat="50.35408" lon="4.87935">
        <ele>78</ele>
        <time>2017-09-24T12:19:26Z</time>
      </trkpt>
      <trkpt lat="50.3544" lon="4.87948">
        <ele>77.52</ele>
        <time>2017-09-24T12:19:51Z</time>
      </trkpt>
      <trkpt lat="50.35465" lon="4.87956">
        <ele>77.52</ele>
        <time>2017-09-24T12:20:14Z</time>
      </trkpt>
      <trkpt lat="50.35498" lon="4.87961">
        <ele>77.04</ele>
        <time>2017-09-24T12:20:37Z</time>
      </trkpt>
      <trkpt lat="50.35526" lon="4.87961">
        <ele>77.04</ele>
        <time>2017-09-24T12:21:00Z</time>
      </trkpt>
      <trkpt lat="50.35552" lon="4.8795">
        <ele>77.04</ele>
        <time>2017-09-24T12:21:24Z</time>
      </trkpt>
      <trkpt lat="50.35565" lon="4.87945">
        <ele>77.04</ele>
        <time>2017-09-24T12:21:35Z</time>
      </trkpt>
      <trkpt lat="50.3557" lon="4.87943">
        <ele>77.04</ele>
        <time>2017-09-24T12:21:39Z</time>
      </trkpt>
      <trkpt lat="50.3559" lon="4.87929">
        <ele>77.04</ele>
        <time>2017-09-24T12:21:56Z</time>
      </trkpt>
      <trkpt lat="50.35606" lon="4.87912">
        <ele>77.04</ele>
        <time>2017-09-24T12:22:13Z</time>
      </trkpt>
      <trkpt lat="50.35625" lon="4.87896">
        <ele>76.56</ele>
        <time>2017-09-24T12:22:30Z</time>
      </trkpt>
      <trkpt lat="50.35639" lon="4.87876">
        <ele>76.56</ele>
        <time>2017-09-24T12:22:45Z</time>
      </trkpt>
      <trkpt lat="50.35647" lon="4.87864">
        <ele>76.56</ele>
        <time>2017-09-24T12:22:54Z</time>
      </trkpt>
      <trkpt lat="50.35661" lon="4.87846">
        <ele>76.56</ele>
        <time>2017-09-24T12:23:09Z</time>
      </trkpt>
      <trkpt lat="50.35681" lon="4.87825">
        <ele>76.56</ele>
        <time>2017-09-24T12:23:29Z</time>
      </trkpt>
      <trkpt lat="50.35698" lon="4.87801">
        <ele>76.56</ele>
        <time>2017-09-24T12:23:48Z</time>
      </trkpt>
      <trkpt lat="50.35713" lon="4.8778">
        <ele>76.56</ele>
        <time>2017-09-24T12:24:06Z</time>
      </trkpt>
      <trkpt lat="50.35732" lon="4.87752">
        <ele>76.56</ele>
        <time>2017-09-24T12:24:27Z</time>
      </trkpt>
      <trkpt lat="50.35743" lon="4.87722">
        <ele>76.08</ele>
        <time>2017-09-24T12:24:46Z</time>
      </trkpt>
      <trkpt lat="50.35759" lon="4.87683">
        <ele>76.08</ele>
        <time>2017-09-24T12:25:09Z</time>
      </trkpt>
      <trkpt lat="50.35773" lon="4.87656">
        <ele>76.08</ele>
        <time>2017-09-24T12:25:29Z</time>
      </trkpt>
      <trkpt lat="50.35795" lon="4.87631">
        <ele>76.08</ele>
        <time>2017-09-24T12:25:51Z</time>
      </trkpt>
      <trkpt lat="50.35811" lon="4.87595">
        <ele>76.08</ele>
        <time>2017-09-24T12:26:13Z</time>
      </trkpt>
      <trkpt lat="50.35814" lon="4.87588">
        <ele>77.04</ele>
        <time>2017-09-24T12:26:17Z</time>
      </trkpt>
      <trkpt lat="50.35834" lon="4.87563">
        <ele>77.04</ele>
        <time>2017-09-24T12:26:38Z</time>
      </trkpt>
      <trkpt lat="50.35851" lon="4.8754">
        <ele>77.04</ele>
        <time>2017-09-24T12:26:57Z</time>
      </trkpt>
      <trkpt lat="50.3587" lon="4.87518">
        <ele>77.04</ele>
        <time>2017-09-24T12:27:18Z</time>
      </trkpt>
      <trkpt lat="50.35891" lon="4.87497">
        <ele>77.04</ele>
        <time>2017-09-24T12:27:39Z</time>
      </trkpt>
      <trkpt lat="50.35913" lon="4.87481">
        <ele>77.04</ele>
        <time>2017-09-24T12:28:00Z</time>
      </trkpt>
      <trkpt lat="50.35941" lon="4.8746">
        <ele>77.04</ele>
        <time>2017-09-24T12:28:23Z</time>
      </trkpt>
      <trkpt lat="50.35962" lon="4.87444">
        <ele>76.56</ele>
        <time>2017-09-24T12:28:44Z</time>
      </trkpt>
      <trkpt lat="50.35984" lon="4.87432">
        <ele>76.56</ele>
        <time>2017-09-24T12:29:03Z</time>
      </trkpt>
      <trkpt lat="50.36007" lon="4.87418">
        <ele>76.56</ele>
        <time>2017-09-24T12:29:22Z</time>
      </trkpt>
      <trkpt lat="50.36029" lon="4.87411">
        <ele>76.56</ele>
        <time>2017-09-24T12:29:43Z</time>
      </trkpt>
      <trkpt lat="50.3605" lon="4.87404">
        <ele>76.56</ele>
        <time>2017-09-24T12:30:01Z</time>
      </trkpt>
      <trkpt lat="50.36072" lon="4.87398">
        <ele>77.04</ele>
        <time>2017-09-24T12:30:20Z</time>
      </trkpt>
      <trkpt lat="50.36094" lon="4.87392">
        <ele>77.04</ele>
        <time>2017-09-24T12:30:39Z</time>
      </trkpt>
      <trkpt lat="50.36115" lon="4.87383">
        <ele>78.48</ele>
        <time>2017-09-24T12:30:59Z</time>
      </trkpt>
      <trkpt lat="50.36118" lon="4.8738">
        <ele>78.48</ele>
        <time>2017-09-24T12:31:17Z</time>
      </trkpt>
      <trkpt lat="50.36125" lon="4.87377">
        <ele>78.48</ele>
        <time>2017-09-24T12:31:33Z</time>
      </trkpt>
      <trkpt lat="50.36142" lon="4.8737">
        <ele>77.04</ele>
        <time>2017-09-24T12:31:53Z</time>
      </trkpt>
      <trkpt lat="50.36162" lon="4.87351">
        <ele>75.6</ele>
        <time>2017-09-24T12:32:13Z</time>
      </trkpt>
      <trkpt lat="50.36184" lon="4.87339">
        <ele>75.6</ele>
        <time>2017-09-24T12:32:33Z</time>
      </trkpt>
      <trkpt lat="50.36191" lon="4.87339">
        <ele>76.08</ele>
        <time>2017-09-24T12:32:41Z</time>
      </trkpt>
      <trkpt lat="50.36207" lon="4.87346">
        <ele>76.08</ele>
        <time>2017-09-24T12:32:59Z</time>
      </trkpt>
      <trkpt lat="50.36209" lon="4.87351">
        <ele>77.04</ele>
        <time>2017-09-24T12:33:02Z</time>
      </trkpt>
      <trkpt lat="50.36211" lon="4.8736">
        <ele>77.52</ele>
        <time>2017-09-24T12:33:09Z</time>
      </trkpt>
      <trkpt lat="50.3621" lon="4.87401">
        <ele>77.52</ele>
        <time>2017-09-24T12:33:30Z</time>
      </trkpt>
      <trkpt lat="50.36207" lon="4.87422">
        <ele>78</ele>
        <time>2017-09-24T12:33:44Z</time>
      </trkpt>
      <trkpt lat="50.36184" lon="4.87421">
        <ele>80.41</ele>
        <time>2017-09-24T12:34:04Z</time>
      </trkpt>
      <trkpt lat="50.36162" lon="4.87427">
        <ele>81.85</ele>
        <time>2017-09-24T12:34:25Z</time>
      </trkpt>
      <trkpt lat="50.36162" lon="4.87453">
        <ele>84.25</ele>
        <time>2017-09-24T12:34:44Z</time>
      </trkpt>
      <trkpt lat="50.36163" lon="4.87478">
        <ele>87.14</ele>
        <time>2017-09-24T12:35:03Z</time>
      </trkpt>
      <trkpt lat="50.36164" lon="4.87494">
        <ele>90.5</ele>
        <time>2017-09-24T12:35:20Z</time>
      </trkpt>
      <trkpt lat="50.36153" lon="4.87509">
        <ele>91.94</ele>
        <time>2017-09-24T12:35:38Z</time>
      </trkpt>
      <trkpt lat="50.36153" lon="4.87533">
        <ele>95.31</ele>
        <time>2017-09-24T12:35:56Z</time>
      </trkpt>
      <trkpt lat="50.3614" lon="4.87541">
        <ele>98.19</ele>
        <time>2017-09-24T12:36:15Z</time>
      </trkpt>
      <trkpt lat="50.36124" lon="4.87544">
        <ele>101.08</ele>
        <time>2017-09-24T12:36:35Z</time>
      </trkpt>
      <trkpt lat="50.36107" lon="4.87553">
        <ele>104.44</ele>
        <time>2017-09-24T12:36:56Z</time>
      </trkpt>
      <trkpt lat="50.36092" lon="4.87567">
        <ele>107.32</ele>
        <time>2017-09-24T12:37:16Z</time>
      </trkpt>
      <trkpt lat="50.3608" lon="4.87586">
        <ele>109.73</ele>
        <time>2017-09-24T12:37:36Z</time>
      </trkpt>
      <trkpt lat="50.36068" lon="4.87614">
        <ele>112.13</ele>
        <time>2017-09-24T12:37:59Z</time>
      </trkpt>
      <trkpt lat="50.36059" lon="4.87644">
        <ele>114.53</ele>
        <time>2017-09-24T12:38:21Z</time>
      </trkpt>
      <trkpt lat="50.3605" lon="4.87679">
        <ele>116.94</ele>
        <time>2017-09-24T12:38:42Z</time>
      </trkpt>
      <trkpt lat="50.36045" lon="4.87708">
        <ele>120.3</ele>
        <time>2017-09-24T12:39:03Z</time>
      </trkpt>
      <trkpt lat="50.36023" lon="4.87732">
        <ele>123.19</ele>
        <time>2017-09-24T12:39:26Z</time>
      </trkpt>
      <trkpt lat="50.36004" lon="4.87748">
        <ele>125.11</ele>
        <time>2017-09-24T12:39:48Z</time>
      </trkpt>
      <trkpt lat="50.35985" lon="4.87779">
        <ele>127.51</ele>
        <time>2017-09-24T12:40:15Z</time>
      </trkpt>
      <trkpt lat="50.35974" lon="4.87816">
        <ele>129.92</ele>
        <time>2017-09-24T12:40:39Z</time>
      </trkpt>
      <trkpt lat="50.35967" lon="4.87842">
        <ele>132.8</ele>
        <time>2017-09-24T12:40:58Z</time>
      </trkpt>
      <trkpt lat="50.35973" lon="4.87869">
        <ele>136.16</ele>
        <time>2017-09-24T12:41:20Z</time>
      </trkpt>
      <trkpt lat="50.35977" lon="4.87891">
        <ele>138.57</ele>
        <time>2017-09-24T12:41:36Z</time>
      </trkpt>
      <trkpt lat="50.35976" lon="4.87923">
        <ele>141.93</ele>
        <time>2017-09-24T12:41:58Z</time>
      </trkpt>
      <trkpt lat="50.3598" lon="4.8796">
        <ele>144.34</ele>
        <time>2017-09-24T12:42:19Z</time>
      </trkpt>
      <trkpt lat="50.35987" lon="4.87996">
        <ele>147.22</ele>
        <time>2017-09-24T12:42:39Z</time>
      </trkpt>
      <trkpt lat="50.35978" lon="4.88017">
        <ele>149.14</ele>
        <time>2017-09-24T12:42:58Z</time>
      </trkpt>
      <trkpt lat="50.35978" lon="4.88026">
        <ele>149.14</ele>
        <time>2017-09-24T12:43:16Z</time>
      </trkpt>
      <trkpt lat="50.35983" lon="4.88039">
        <ele>149.14</ele>
        <time>2017-09-24T12:43:32Z</time>
      </trkpt>
      <trkpt lat="50.35986" lon="4.88063">
        <ele>150.1</ele>
        <time>2017-09-24T12:43:48Z</time>
      </trkpt>
      <trkpt lat="50.35984" lon="4.88086">
        <ele>151.54</ele>
        <time>2017-09-24T12:44:04Z</time>
      </trkpt>
      <trkpt lat="50.35975" lon="4.88107">
        <ele>152.99</ele>
        <time>2017-09-24T12:44:21Z</time>
      </trkpt>
      <trkpt lat="50.35966" lon="4.88117">
        <ele>153.47</ele>
        <time>2017-09-24T12:44:31Z</time>
      </trkpt>
      <trkpt lat="50.35949" lon="4.88133">
        <ele>154.43</ele>
        <time>2017-09-24T12:44:49Z</time>
      </trkpt>
      <trkpt lat="50.35932" lon="4.8815">
        <ele>154.91</ele>
        <time>2017-09-24T12:45:09Z</time>
      </trkpt>
      <trkpt lat="50.35919" lon="4.88176">
        <ele>155.87</ele>
        <time>2017-09-24T12:45:33Z</time>
      </trkpt>
      <trkpt lat="50.35909" lon="4.88197">
        <ele>155.87</ele>
        <time>2017-09-24T12:45:55Z</time>
      </trkpt>
      <trkpt lat="50.35896" lon="4.88233">
        <ele>155.87</ele>
        <time>2017-09-24T12:46:18Z</time>
      </trkpt>
      <trkpt lat="50.35879" lon="4.8828">
        <ele>155.87</ele>
        <time>2017-09-24T12:46:41Z</time>
      </trkpt>
      <trkpt lat="50.35877" lon="4.88307">
        <ele>155.87</ele>
        <time>2017-09-24T12:47:01Z</time>
      </trkpt>
      <trkpt lat="50.35874" lon="4.8834">
        <ele>155.87</ele>
        <time>2017-09-24T12:47:25Z</time>
      </trkpt>
      <trkpt lat="50.35868" lon="4.88377">
        <ele>155.87</ele>
        <time>2017-09-24T12:47:47Z</time>
      </trkpt>
      <trkpt lat="50.35862" lon="4.88388">
        <ele>155.87</ele>
        <time>2017-09-24T12:47:51Z</time>
      </trkpt>
      <trkpt lat="50.3585" lon="4.88427">
        <ele>155.87</ele>
        <time>2017-09-24T12:48:11Z</time>
      </trkpt>
      <trkpt lat="50.35835" lon="4.88454">
        <ele>155.87</ele>
        <time>2017-09-24T12:48:32Z</time>
      </trkpt>
      <trkpt lat="50.35821" lon="4.88472">
        <ele>155.87</ele>
        <time>2017-09-24T12:48:50Z</time>
      </trkpt>
      <trkpt lat="50.35814" lon="4.88508">
        <ele>155.87</ele>
        <time>2017-09-24T12:49:10Z</time>
      </trkpt>
      <trkpt lat="50.35806" lon="4.88551">
        <ele>155.87</ele>
        <time>2017-09-24T12:49:33Z</time>
      </trkpt>
      <trkpt lat="50.35798" lon="4.88591">
        <ele>155.87</ele>
        <time>2017-09-24T12:49:55Z</time>
      </trkpt>
      <trkpt lat="50.35789" lon="4.88631">
        <ele>156.35</ele>
        <time>2017-09-24T12:50:18Z</time>
      </trkpt>
      <trkpt lat="50.35774" lon="4.88656">
        <ele>156.83</ele>
        <time>2017-09-24T12:50:36Z</time>
      </trkpt>
      <trkpt lat="50.35761" lon="4.88674">
        <ele>156.83</ele>
        <time>2017-09-24T12:50:51Z</time>
      </trkpt>
      <trkpt lat="50.35759" lon="4.88677">
        <ele>156.83</ele>
        <time>2017-09-24T12:50:53Z</time>
      </trkpt>
      <trkpt lat="50.35733" lon="4.88697">
        <ele>156.83</ele>
        <time>2017-09-24T12:51:16Z</time>
      </trkpt>
      <trkpt lat="50.35705" lon="4.88721">
        <ele>156.83</ele>
        <time>2017-09-24T12:51:40Z</time>
      </trkpt>
      <trkpt lat="50.35678" lon="4.88747">
        <ele>157.79</ele>
        <time>2017-09-24T12:52:05Z</time>
      </trkpt>
      <trkpt lat="50.35651" lon="4.88776">
        <ele>159.24</ele>
        <time>2017-09-24T12:52:31Z</time>
      </trkpt>
      <trkpt lat="50.35631" lon="4.88807">
        <ele>161.64</ele>
        <time>2017-09-24T12:52:55Z</time>
      </trkpt>
      <trkpt lat="50.35612" lon="4.88842">
        <ele>163.56</ele>
        <time>2017-09-24T12:53:19Z</time>
      </trkpt>
      <trkpt lat="50.35591" lon="4.88876">
        <ele>165</ele>
        <time>2017-09-24T12:53:43Z</time>
      </trkpt>
      <trkpt lat="50.3557" lon="4.88915">
        <ele>166.45</ele>
        <time>2017-09-24T12:54:09Z</time>
      </trkpt>
      <trkpt lat="50.35555" lon="4.88941">
        <ele>168.37</ele>
        <time>2017-09-24T12:54:32Z</time>
      </trkpt>
      <trkpt lat="50.35557" lon="4.8895">
        <ele>169.33</ele>
        <time>2017-09-24T12:54:47Z</time>
      </trkpt>
      <trkpt lat="50.35559" lon="4.88953">
        <ele>169.33</ele>
        <time>2017-09-24T12:54:49Z</time>
      </trkpt>
      <trkpt lat="50.3558" lon="4.88955">
        <ele>170.29</ele>
        <time>2017-09-24T12:55:08Z</time>
      </trkpt>
      <trkpt lat="50.35596" lon="4.88961">
        <ele>171.25</ele>
        <time>2017-09-24T12:55:26Z</time>
      </trkpt>
      <trkpt lat="50.35612" lon="4.8897">
        <ele>173.66</ele>
        <time>2017-09-24T12:55:46Z</time>
      </trkpt>
      <trkpt lat="50.3563" lon="4.88979">
        <ele>175.1</ele>
        <time>2017-09-24T12:56:06Z</time>
      </trkpt>
      <trkpt lat="50.35642" lon="4.88993">
        <ele>177.98</ele>
        <time>2017-09-24T12:56:24Z</time>
      </trkpt>
      <trkpt lat="50.35656" lon="4.89011">
        <ele>179.9</ele>
        <time>2017-09-24T12:56:44Z</time>
      </trkpt>
      <trkpt lat="50.3567" lon="4.89026">
        <ele>182.31</ele>
        <time>2017-09-24T12:57:03Z</time>
      </trkpt>
      <trkpt lat="50.35682" lon="4.89042">
        <ele>184.23</ele>
        <time>2017-09-24T12:57:21Z</time>
      </trkpt>
      <trkpt lat="50.35694" lon="4.89059">
        <ele>186.63</ele>
        <time>2017-09-24T12:57:38Z</time>
      </trkpt>
      <trkpt lat="50.35705" lon="4.89079">
        <ele>189.04</ele>
        <time>2017-09-24T12:57:57Z</time>
      </trkpt>
      <trkpt lat="50.35714" lon="4.89094">
        <ele>190</ele>
        <time>2017-09-24T12:58:12Z</time>
      </trkpt>
      <trkpt lat="50.35723" lon="4.89112">
        <ele>192.88</ele>
        <time>2017-09-24T12:58:29Z</time>
      </trkpt>
      <trkpt lat="50.35732" lon="4.89126">
        <ele>194.32</ele>
        <time>2017-09-24T12:58:42Z</time>
      </trkpt>
      <trkpt lat="50.35743" lon="4.89146">
        <ele>196.25</ele>
        <time>2017-09-24T12:59:00Z</time>
      </trkpt>
      <trkpt lat="50.35754" lon="4.89168">
        <ele>198.17</ele>
        <time>2017-09-24T12:59:19Z</time>
      </trkpt>
      <trkpt lat="50.35763" lon="4.89185">
        <ele>199.61</ele>
        <time>2017-09-24T12:59:36Z</time>
      </trkpt>
      <trkpt lat="50.3577" lon="4.89203">
        <ele>201.53</ele>
        <time>2017-09-24T12:59:51Z</time>
      </trkpt>
      <trkpt lat="50.35779" lon="4.89227">
        <ele>202.98</ele>
        <time>2017-09-24T13:00:09Z</time>
      </trkpt>
      <trkpt lat="50.35786" lon="4.89252">
        <ele>204.9</ele>
        <time>2017-09-24T13:00:28Z</time>
      </trkpt>
      <trkpt lat="50.35795" lon="4.89279">
        <ele>207.3</ele>
        <time>2017-09-24T13:00:47Z</time>
      </trkpt>
      <trkpt lat="50.35798" lon="4.89295">
        <ele>208.26</ele>
        <time>2017-09-24T13:00:58Z</time>
      </trkpt>
      <trkpt lat="50.35805" lon="4.89317">
        <ele>209.7</ele>
        <time>2017-09-24T13:01:13Z</time>
      </trkpt>
      <trkpt lat="50.35816" lon="4.89348">
        <ele>212.59</ele>
        <time>2017-09-24T13:01:34Z</time>
      </trkpt>
      <trkpt lat="50.35825" lon="4.89371">
        <ele>215.47</ele>
        <time>2017-09-24T13:01:51Z</time>
      </trkpt>
      <trkpt lat="50.35836" lon="4.89395">
        <ele>217.88</ele>
        <time>2017-09-24T13:02:11Z</time>
      </trkpt>
      <trkpt lat="50.35842" lon="4.89423">
        <ele>219.8</ele>
        <time>2017-09-24T13:02:28Z</time>
      </trkpt>
      <trkpt lat="50.35843" lon="4.8945">
        <ele>222.2</ele>
        <time>2017-09-24T13:02:47Z</time>
      </trkpt>
      <trkpt lat="50.35843" lon="4.89483">
        <ele>225.57</ele>
        <time>2017-09-24T13:03:07Z</time>
      </trkpt>
      <trkpt lat="50.35842" lon="4.89521">
        <ele>228.93</ele>
        <time>2017-09-24T13:03:31Z</time>
      </trkpt>
      <trkpt lat="50.35842" lon="4.89556">
        <ele>231.33</ele>
        <time>2017-09-24T13:03:51Z</time>
      </trkpt>
      <trkpt lat="50.35844" lon="4.89591">
        <ele>233.74</ele>
        <time>2017-09-24T13:04:12Z</time>
      </trkpt>
      <trkpt lat="50.35843" lon="4.89631">
        <ele>236.14</ele>
        <time>2017-09-24T13:04:37Z</time>
      </trkpt>
      <trkpt lat="50.35846" lon="4.8967">
        <ele>238.54</ele>
        <time>2017-09-24T13:05:01Z</time>
      </trkpt>
      <trkpt lat="50.35842" lon="4.89704">
        <ele>240.95</ele>
        <time>2017-09-24T13:05:22Z</time>
      </trkpt>
      <trkpt lat="50.35841" lon="4.89732">
        <ele>242.87</ele>
        <time>2017-09-24T13:05:39Z</time>
      </trkpt>
      <trkpt lat="50.35847" lon="4.89771">
        <ele>244.31</ele>
        <time>2017-09-24T13:06:01Z</time>
      </trkpt>
      <trkpt lat="50.35847" lon="4.89799">
        <ele>245.27</ele>
        <time>2017-09-24T13:06:21Z</time>
      </trkpt>
      <trkpt lat="50.35851" lon="4.89844">
        <ele>247.68</ele>
        <time>2017-09-24T13:06:46Z</time>
      </trkpt>
      <trkpt lat="50.35851" lon="4.89883">
        <ele>249.6</ele>
        <time>2017-09-24T13:07:07Z</time>
      </trkpt>
      <trkpt lat="50.35854" lon="4.89906">
        <ele>251.04</ele>
        <time>2017-09-24T13:07:24Z</time>
      </trkpt>
      <trkpt lat="50.35854" lon="4.8991">
        <ele>251.52</ele>
        <time>2017-09-24T13:07:27Z</time>
      </trkpt>
      <trkpt lat="50.35854" lon="4.89914">
        <ele>251.52</ele>
        <time>2017-09-24T13:07:29Z</time>
      </trkpt>
      <trkpt lat="50.35849" lon="4.8995">
        <ele>254.41</ele>
        <time>2017-09-24T13:07:52Z</time>
      </trkpt>
      <trkpt lat="50.35842" lon="4.89983">
        <ele>256.33</ele>
        <time>2017-09-24T13:08:15Z</time>
      </trkpt>
      <trkpt lat="50.35828" lon="4.90013">
        <ele>257.29</ele>
        <time>2017-09-24T13:08:40Z</time>
      </trkpt>
      <trkpt lat="50.35821" lon="4.90022">
        <ele>257.29</ele>
        <time>2017-09-24T13:08:59Z</time>
      </trkpt>
      <trkpt lat="50.35818" lon="4.90025">
        <ele>257.29</ele>
        <time>2017-09-24T13:09:21Z</time>
      </trkpt>
      <trkpt lat="50.35817" lon="4.90024">
        <ele>257.77</ele>
        <time>2017-09-24T13:09:45Z</time>
      </trkpt>
      <trkpt lat="50.35818" lon="4.90022">
        <ele>257.77</ele>
        <time>2017-09-24T13:10:11Z</time>
      </trkpt>
      <trkpt lat="50.35812" lon="4.90024">
        <ele>257.77</ele>
        <time>2017-09-24T13:10:32Z</time>
      </trkpt>
      <trkpt lat="50.35807" lon="4.90031">
        <ele>258.25</ele>
        <time>2017-09-24T13:10:55Z</time>
      </trkpt>
      <trkpt lat="50.35812" lon="4.90028">
        <ele>258.25</ele>
        <time>2017-09-24T13:11:14Z</time>
      </trkpt>
      <trkpt lat="50.35813" lon="4.90029">
        <ele>258.25</ele>
        <time>2017-09-24T13:11:41Z</time>
      </trkpt>
      <trkpt lat="50.35818" lon="4.90027">
        <ele>258.25</ele>
        <time>2017-09-24T13:12:04Z</time>
      </trkpt>
      <trkpt lat="50.35815" lon="4.9002">
        <ele>258.25</ele>
        <time>2017-09-24T13:12:32Z</time>
      </trkpt>
      <trkpt lat="50.35817" lon="4.90024">
        <ele>258.73</ele>
        <time>2017-09-24T13:12:58Z</time>
      </trkpt>
      <trkpt lat="50.35816" lon="4.9003">
        <ele>258.73</ele>
        <time>2017-09-24T13:13:29Z</time>
      </trkpt>
      <trkpt lat="50.35816" lon="4.90031">
        <ele>258.73</ele>
        <time>2017-09-24T13:13:51Z</time>
      </trkpt>
      <trkpt lat="50.35816" lon="4.90033">
        <ele>259.21</ele>
        <time>2017-09-24T13:14:21Z</time>
      </trkpt>
      <trkpt lat="50.35811" lon="4.90031">
        <ele>259.21</ele>
        <time>2017-09-24T13:14:46Z</time>
      </trkpt>
      <trkpt lat="50.35808" lon="4.90032">
        <ele>259.21</ele>
        <time>2017-09-24T13:15:14Z</time>
      </trkpt>
      <trkpt lat="50.35812" lon="4.9003">
        <ele>259.69</ele>
        <time>2017-09-24T13:15:37Z</time>
      </trkpt>
      <trkpt lat="50.35814" lon="4.90026">
        <ele>259.69</ele>
        <time>2017-09-24T13:16:06Z</time>
      </trkpt>
      <trkpt lat="50.35815" lon="4.90035">
        <ele>259.69</ele>
        <time>2017-09-24T13:16:36Z</time>
      </trkpt>
      <trkpt lat="50.35814" lon="4.90026">
        <ele>260.17</ele>
        <time>2017-09-24T13:17:02Z</time>
      </trkpt>
      <trkpt lat="50.35812" lon="4.90027">
        <ele>260.17</ele>
        <time>2017-09-24T13:17:33Z</time>
      </trkpt>
      <trkpt lat="50.35808" lon="4.90025">
        <ele>260.65</ele>
        <time>2017-09-24T13:18:06Z</time>
      </trkpt>
      <trkpt lat="50.35812" lon="4.90025">
        <ele>260.65</ele>
        <time>2017-09-24T13:18:25Z</time>
      </trkpt>
      <trkpt lat="50.35811" lon="4.90028">
        <ele>260.65</ele>
        <time>2017-09-24T13:18:49Z</time>
      </trkpt>
      <trkpt lat="50.35803" lon="4.90038">
        <ele>259.21</ele>
        <time>2017-09-24T13:19:04Z</time>
      </trkpt>
      <trkpt lat="50.35802" lon="4.90039">
        <ele>259.21</ele>
        <time>2017-09-24T13:19:05Z</time>
      </trkpt>
      <trkpt lat="50.35793" lon="4.90076">
        <ele>259.21</ele>
        <time>2017-09-24T13:19:26Z</time>
      </trkpt>
      <trkpt lat="50.35786" lon="4.90114">
        <ele>261.14</ele>
        <time>2017-09-24T13:19:51Z</time>
      </trkpt>
      <trkpt lat="50.35786" lon="4.90148">
        <ele>262.1</ele>
        <time>2017-09-24T13:20:11Z</time>
      </trkpt>
      <trkpt lat="50.35788" lon="4.90186">
        <ele>263.54</ele>
        <time>2017-09-24T13:20:32Z</time>
      </trkpt>
      <trkpt lat="50.3579" lon="4.90217">
        <ele>263.54</ele>
        <time>2017-09-24T13:20:49Z</time>
      </trkpt>
      <trkpt lat="50.3579" lon="4.9026">
        <ele>264.02</ele>
        <time>2017-09-24T13:21:13Z</time>
      </trkpt>
      <trkpt lat="50.35791" lon="4.90302">
        <ele>264.02</ele>
        <time>2017-09-24T13:21:34Z</time>
      </trkpt>
      <trkpt lat="50.35792" lon="4.90341">
        <ele>264.5</ele>
        <time>2017-09-24T13:21:55Z</time>
      </trkpt>
      <trkpt lat="50.35794" lon="4.90374">
        <ele>264.5</ele>
        <time>2017-09-24T13:22:15Z</time>
      </trkpt>
      <trkpt lat="50.35793" lon="4.90407">
        <ele>264.98</ele>
        <time>2017-09-24T13:22:34Z</time>
      </trkpt>
      <trkpt lat="50.35796" lon="4.90447">
        <ele>264.98</ele>
        <time>2017-09-24T13:22:58Z</time>
      </trkpt>
      <trkpt lat="50.35799" lon="4.90492">
        <ele>265.46</ele>
        <time>2017-09-24T13:23:22Z</time>
      </trkpt>
      <trkpt lat="50.35799" lon="4.90503">
        <ele>265.46</ele>
        <time>2017-09-24T13:23:43Z</time>
      </trkpt>
      <trkpt lat="50.35799" lon="4.90535">
        <ele>265.46</ele>
        <time>2017-09-24T13:24:03Z</time>
      </trkpt>
      <trkpt lat="50.358" lon="4.90585">
        <ele>264.5</ele>
        <time>2017-09-24T13:24:26Z</time>
      </trkpt>
      <trkpt lat="50.35801" lon="4.90627">
        <ele>264.02</ele>
        <time>2017-09-24T13:24:48Z</time>
      </trkpt>
      <trkpt lat="50.35804" lon="4.90674">
        <ele>263.54</ele>
        <time>2017-09-24T13:25:11Z</time>
      </trkpt>
      <trkpt lat="50.35807" lon="4.90725">
        <ele>263.06</ele>
        <time>2017-09-24T13:25:38Z</time>
      </trkpt>
      <trkpt lat="50.35809" lon="4.90775">
        <ele>262.58</ele>
        <time>2017-09-24T13:26:05Z</time>
      </trkpt>
      <trkpt lat="50.3581" lon="4.90823">
        <ele>262.58</ele>
        <time>2017-09-24T13:26:28Z</time>
      </trkpt>
      <trkpt lat="50.35813" lon="4.90872">
        <ele>262.58</ele>
        <time>2017-09-24T13:26:52Z</time>
      </trkpt>
      <trkpt lat="50.35816" lon="4.90914">
        <ele>262.58</ele>
        <time>2017-09-24T13:27:14Z</time>
      </trkpt>
      <trkpt lat="50.35817" lon="4.90959">
        <ele>262.58</ele>
        <time>2017-09-24T13:27:37Z</time>
      </trkpt>
      <trkpt lat="50.3582" lon="4.91005">
        <ele>262.58</ele>
        <time>2017-09-24T13:28:00Z</time>
      </trkpt>
      <trkpt lat="50.35823" lon="4.91055">
        <ele>262.1</ele>
        <time>2017-09-24T13:28:26Z</time>
      </trkpt>
      <trkpt lat="50.35824" lon="4.91104">
        <ele>262.1</ele>
        <time>2017-09-24T13:28:48Z</time>
      </trkpt>
      <trkpt lat="50.35826" lon="4.91144">
        <ele>262.1</ele>
        <time>2017-09-24T13:29:08Z</time>
      </trkpt>
      <trkpt lat="50.35824" lon="4.91173">
        <ele>263.54</ele>
        <time>2017-09-24T13:29:26Z</time>
      </trkpt>
      <trkpt lat="50.35825" lon="4.91215">
        <ele>264.02</ele>
        <time>2017-09-24T13:29:46Z</time>
      </trkpt>
      <trkpt lat="50.3582" lon="4.91237">
        <ele>264.02</ele>
        <time>2017-09-24T13:30:05Z</time>
      </trkpt>
      <trkpt lat="50.35825" lon="4.91239">
        <ele>264.02</ele>
        <time>2017-09-24T13:30:26Z</time>
      </trkpt>
      <trkpt lat="50.35823" lon="4.91234">
        <ele>264.02</ele>
        <time>2017-09-24T13:30:42Z</time>
      </trkpt>
      <trkpt lat="50.35816" lon="4.91246">
        <ele>264.02</ele>
        <time>2017-09-24T13:31:00Z</time>
      </trkpt>
      <trkpt lat="50.35799" lon="4.91275">
        <ele>261.62</ele>
        <time>2017-09-24T13:31:22Z</time>
      </trkpt>
      <trkpt lat="50.35796" lon="4.9128">
        <ele>261.14</ele>
        <time>2017-09-24T13:31:26Z</time>
      </trkpt>
      <trkpt lat="50.35781" lon="4.91305">
        <ele>259.21</ele>
        <time>2017-09-24T13:31:45Z</time>
      </trkpt>
      <trkpt lat="50.35778" lon="4.91309">
        <ele>259.21</ele>
        <time>2017-09-24T13:31:49Z</time>
      </trkpt>
      <trkpt lat="50.35762" lon="4.91336">
        <ele>256.81</ele>
        <time>2017-09-24T13:32:09Z</time>
      </trkpt>
      <trkpt lat="50.35745" lon="4.91377">
        <ele>254.89</ele>
        <time>2017-09-24T13:32:35Z</time>
      </trkpt>
      <trkpt lat="50.35731" lon="4.91395">
        <ele>251.52</ele>
        <time>2017-09-24T13:32:52Z</time>
      </trkpt>
      <trkpt lat="50.35714" lon="4.9141">
        <ele>248.16</ele>
        <time>2017-09-24T13:33:09Z</time>
      </trkpt>
      <trkpt lat="50.35696" lon="4.9143">
        <ele>245.27</ele>
        <time>2017-09-24T13:33:29Z</time>
      </trkpt>
      <trkpt lat="50.35679" lon="4.91455">
        <ele>242.39</ele>
        <time>2017-09-24T13:33:51Z</time>
      </trkpt>
      <trkpt lat="50.35673" lon="4.91478">
        <ele>242.39</ele>
        <time>2017-09-24T13:34:09Z</time>
      </trkpt>
      <trkpt lat="50.3567" lon="4.91486">
        <ele>243.83</ele>
        <time>2017-09-24T13:34:28Z</time>
      </trkpt>
      <trkpt lat="50.35667" lon="4.91486">
        <ele>242.39</ele>
        <time>2017-09-24T13:34:34Z</time>
      </trkpt>
      <trkpt lat="50.35652" lon="4.915">
        <ele>239.51</ele>
        <time>2017-09-24T13:34:55Z</time>
      </trkpt>
      <trkpt lat="50.35645" lon="4.91502">
        <ele>238.54</ele>
        <time>2017-09-24T13:35:11Z</time>
      </trkpt>
      <trkpt lat="50.35619" lon="4.91517">
        <ele>236.14</ele>
        <time>2017-09-24T13:35:32Z</time>
      </trkpt>
      <trkpt lat="50.356" lon="4.91528">
        <ele>233.74</ele>
        <time>2017-09-24T13:35:49Z</time>
      </trkpt>
      <trkpt lat="50.35576" lon="4.91544">
        <ele>231.81</ele>
        <time>2017-09-24T13:36:12Z</time>
      </trkpt>
      <trkpt lat="50.35551" lon="4.91569">
        <ele>230.37</ele>
        <time>2017-09-24T13:36:36Z</time>
      </trkpt>
      <trkpt lat="50.35533" lon="4.91598">
        <ele>230.37</ele>
        <time>2017-09-24T13:36:57Z</time>
      </trkpt>
      <trkpt lat="50.35517" lon="4.91626">
        <ele>228.45</ele>
        <time>2017-09-24T13:37:23Z</time>
      </trkpt>
      <trkpt lat="50.35503" lon="4.91638">
        <ele>227.49</ele>
        <time>2017-09-24T13:37:32Z</time>
      </trkpt>
      <trkpt lat="50.35476" lon="4.9164">
        <ele>227.01</ele>
        <time>2017-09-24T13:37:52Z</time>
      </trkpt>
      <trkpt lat="50.35454" lon="4.91635">
        <ele>226.53</ele>
        <time>2017-09-24T13:38:11Z</time>
      </trkpt>
      <trkpt lat="50.35427" lon="4.91624">
        <ele>226.53</ele>
        <time>2017-09-24T13:38:34Z</time>
      </trkpt>
      <trkpt lat="50.35406" lon="4.91614">
        <ele>227.49</ele>
        <time>2017-09-24T13:38:53Z</time>
      </trkpt>
      <trkpt lat="50.35386" lon="4.91602">
        <ele>228.45</ele>
        <time>2017-09-24T13:39:13Z</time>
      </trkpt>
      <trkpt lat="50.35375" lon="4.91589">
        <ele>229.41</ele>
        <time>2017-09-24T13:39:25Z</time>
      </trkpt>
      <trkpt lat="50.35358" lon="4.91564">
        <ele>230.37</ele>
        <time>2017-09-24T13:39:45Z</time>
      </trkpt>
      <trkpt lat="50.35346" lon="4.91542">
        <ele>230.85</ele>
        <time>2017-09-24T13:40:02Z</time>
      </trkpt>
      <trkpt lat="50.35335" lon="4.91521">
        <ele>231.33</ele>
        <time>2017-09-24T13:40:18Z</time>
      </trkpt>
      <trkpt lat="50.35324" lon="4.91494">
        <ele>232.3</ele>
        <time>2017-09-24T13:40:37Z</time>
      </trkpt>
      <trkpt lat="50.35314" lon="4.91473">
        <ele>232.78</ele>
        <time>2017-09-24T13:40:52Z</time>
      </trkpt>
      <trkpt lat="50.35303" lon="4.91455">
        <ele>232.78</ele>
        <time>2017-09-24T13:41:07Z</time>
      </trkpt>
      <trkpt lat="50.35291" lon="4.91446">
        <ele>233.74</ele>
        <time>2017-09-24T13:41:25Z</time>
      </trkpt>
      <trkpt lat="50.35293" lon="4.91445">
        <ele>234.22</ele>
        <time>2017-09-24T13:41:39Z</time>
      </trkpt>
      <trkpt lat="50.35294" lon="4.91445">
        <ele>234.22</ele>
        <time>2017-09-24T13:41:57Z</time>
      </trkpt>
      <trkpt lat="50.35294" lon="4.91447">
        <ele>234.22</ele>
        <time>2017-09-24T13:42:19Z</time>
      </trkpt>
      <trkpt lat="50.35297" lon="4.91444">
        <ele>234.22</ele>
        <time>2017-09-24T13:42:39Z</time>
      </trkpt>
      <trkpt lat="50.35293" lon="4.9145">
        <ele>234.7</ele>
        <time>2017-09-24T13:42:56Z</time>
      </trkpt>
      <trkpt lat="50.35294" lon="4.91449">
        <ele>234.7</ele>
        <time>2017-09-24T13:43:21Z</time>
      </trkpt>
      <trkpt lat="50.35292" lon="4.91443">
        <ele>234.7</ele>
        <time>2017-09-24T13:43:36Z</time>
      </trkpt>
      <trkpt lat="50.35293" lon="4.91442">
        <ele>234.7</ele>
        <time>2017-09-24T13:43:57Z</time>
      </trkpt>
      <trkpt lat="50.35294" lon="4.91443">
        <ele>234.7</ele>
        <time>2017-09-24T13:44:19Z</time>
      </trkpt>
      <trkpt lat="50.35295" lon="4.91444">
        <ele>234.7</ele>
        <time>2017-09-24T13:44:46Z</time>
      </trkpt>
      <trkpt lat="50.35293" lon="4.91444">
        <ele>234.7</ele>
        <time>2017-09-24T13:45:07Z</time>
      </trkpt>
      <trkpt lat="50.35294" lon="4.91444">
        <ele>234.7</ele>
        <time>2017-09-24T13:45:30Z</time>
      </trkpt>
      <trkpt lat="50.35293" lon="4.91441">
        <ele>234.7</ele>
        <time>2017-09-24T13:45:48Z</time>
      </trkpt>
      <trkpt lat="50.3529" lon="4.91437">
        <ele>234.7</ele>
        <time>2017-09-24T13:46:05Z</time>
      </trkpt>
      <trkpt lat="50.35288" lon="4.91429">
        <ele>234.7</ele>
        <time>2017-09-24T13:46:13Z</time>
      </trkpt>
      <trkpt lat="50.35285" lon="4.91419">
        <ele>234.7</ele>
        <time>2017-09-24T13:46:18Z</time>
      </trkpt>
      <trkpt lat="50.35279" lon="4.91375">
        <ele>234.7</ele>
        <time>2017-09-24T13:46:41Z</time>
      </trkpt>
      <trkpt lat="50.35278" lon="4.91362">
        <ele>233.74</ele>
        <time>2017-09-24T13:46:48Z</time>
      </trkpt>
      <trkpt lat="50.35275" lon="4.91327">
        <ele>233.26</ele>
        <time>2017-09-24T13:47:06Z</time>
      </trkpt>
      <trkpt lat="50.35272" lon="4.91293">
        <ele>232.3</ele>
        <time>2017-09-24T13:47:23Z</time>
      </trkpt>
      <trkpt lat="50.35269" lon="4.91255">
        <ele>231.33</ele>
        <time>2017-09-24T13:47:43Z</time>
      </trkpt>
      <trkpt lat="50.35266" lon="4.91219">
        <ele>230.85</ele>
        <time>2017-09-24T13:48:02Z</time>
      </trkpt>
      <trkpt lat="50.35262" lon="4.91177">
        <ele>230.37</ele>
        <time>2017-09-24T13:48:24Z</time>
      </trkpt>
      <trkpt lat="50.3526" lon="4.91143">
        <ele>229.41</ele>
        <time>2017-09-24T13:48:42Z</time>
      </trkpt>
      <trkpt lat="50.35251" lon="4.91125">
        <ele>228.93</ele>
        <time>2017-09-24T13:49:00Z</time>
      </trkpt>
      <trkpt lat="50.35231" lon="4.91152">
        <ele>231.81</ele>
        <time>2017-09-24T13:49:23Z</time>
      </trkpt>
      <trkpt lat="50.35214" lon="4.91178">
        <ele>234.22</ele>
        <time>2017-09-24T13:49:43Z</time>
      </trkpt>
      <trkpt lat="50.35203" lon="4.91208">
        <ele>236.62</ele>
        <time>2017-09-24T13:50:03Z</time>
      </trkpt>
      <trkpt lat="50.35189" lon="4.91238">
        <ele>239.51</ele>
        <time>2017-09-24T13:50:26Z</time>
      </trkpt>
      <trkpt lat="50.35176" lon="4.91264">
        <ele>242.87</ele>
        <time>2017-09-24T13:50:47Z</time>
      </trkpt>
      <trkpt lat="50.35163" lon="4.91281">
        <ele>245.27</ele>
        <time>2017-09-24T13:51:08Z</time>
      </trkpt>
      <trkpt lat="50.35148" lon="4.91298">
        <ele>248.64</ele>
        <time>2017-09-24T13:51:29Z</time>
      </trkpt>
      <trkpt lat="50.35132" lon="4.91317">
        <ele>251.04</ele>
        <time>2017-09-24T13:51:53Z</time>
      </trkpt>
      <trkpt lat="50.35113" lon="4.91335">
        <ele>253.93</ele>
        <time>2017-09-24T13:52:16Z</time>
      </trkpt>
      <trkpt lat="50.35094" lon="4.91362">
        <ele>256.81</ele>
        <time>2017-09-24T13:52:38Z</time>
      </trkpt>
      <trkpt lat="50.35078" lon="4.91381">
        <ele>258.73</ele>
        <time>2017-09-24T13:53:01Z</time>
      </trkpt>
      <trkpt lat="50.35065" lon="4.91405">
        <ele>261.14</ele>
        <time>2017-09-24T13:53:21Z</time>
      </trkpt>
      <trkpt lat="50.35046" lon="4.91423">
        <ele>262.1</ele>
        <time>2017-09-24T13:53:41Z</time>
      </trkpt>
      <trkpt lat="50.35033" lon="4.91429">
        <ele>263.06</ele>
        <time>2017-09-24T13:54:00Z</time>
      </trkpt>
      <trkpt lat="50.35014" lon="4.91433">
        <ele>263.06</ele>
        <time>2017-09-24T13:54:20Z</time>
      </trkpt>
      <trkpt lat="50.34989" lon="4.91434">
        <ele>263.06</ele>
        <time>2017-09-24T13:54:43Z</time>
      </trkpt>
      <trkpt lat="50.34966" lon="4.91435">
        <ele>263.06</ele>
        <time>2017-09-24T13:55:02Z</time>
      </trkpt>
      <trkpt lat="50.34939" lon="4.91436">
        <ele>262.58</ele>
        <time>2017-09-24T13:55:22Z</time>
      </trkpt>
      <trkpt lat="50.34905" lon="4.91431">
        <ele>260.65</ele>
        <time>2017-09-24T13:55:45Z</time>
      </trkpt>
      <trkpt lat="50.34892" lon="4.91431">
        <ele>259.69</ele>
        <time>2017-09-24T13:56:05Z</time>
      </trkpt>
      <trkpt lat="50.3486" lon="4.91431">
        <ele>258.25</ele>
        <time>2017-09-24T13:56:30Z</time>
      </trkpt>
      <trkpt lat="50.34835" lon="4.91435">
        <ele>255.85</ele>
        <time>2017-09-24T13:56:49Z</time>
      </trkpt>
      <trkpt lat="50.34808" lon="4.91443">
        <ele>253.93</ele>
        <time>2017-09-24T13:57:12Z</time>
      </trkpt>
      <trkpt lat="50.34785" lon="4.91441">
        <ele>251.04</ele>
        <time>2017-09-24T13:57:34Z</time>
      </trkpt>
      <trkpt lat="50.34763" lon="4.91443">
        <ele>248.64</ele>
        <time>2017-09-24T13:57:54Z</time>
      </trkpt>
      <trkpt lat="50.34741" lon="4.91447">
        <ele>245.75</ele>
        <time>2017-09-24T13:58:15Z</time>
      </trkpt>
      <trkpt lat="50.34719" lon="4.91451">
        <ele>243.35</ele>
        <time>2017-09-24T13:58:37Z</time>
      </trkpt>
      <trkpt lat="50.34696" lon="4.91454">
        <ele>240.47</ele>
        <time>2017-09-24T13:58:57Z</time>
      </trkpt>
      <trkpt lat="50.34671" lon="4.91455">
        <ele>238.54</ele>
        <time>2017-09-24T13:59:17Z</time>
      </trkpt>
      <trkpt lat="50.34647" lon="4.9145">
        <ele>235.18</ele>
        <time>2017-09-24T13:59:40Z</time>
      </trkpt>
      <trkpt lat="50.34629" lon="4.91449">
        <ele>233.26</ele>
        <time>2017-09-24T13:59:58Z</time>
      </trkpt>
      <trkpt lat="50.34614" lon="4.91445">
        <ele>231.33</ele>
        <time>2017-09-24T14:00:17Z</time>
      </trkpt>
      <trkpt lat="50.34593" lon="4.91445">
        <ele>228.93</ele>
        <time>2017-09-24T14:00:37Z</time>
      </trkpt>
      <trkpt lat="50.34574" lon="4.91444">
        <ele>227.01</ele>
        <time>2017-09-24T14:00:57Z</time>
      </trkpt>
      <trkpt lat="50.34551" lon="4.91457">
        <ele>225.09</ele>
        <time>2017-09-24T14:01:16Z</time>
      </trkpt>
      <trkpt lat="50.34548" lon="4.91458">
        <ele>225.09</ele>
        <time>2017-09-24T14:01:42Z</time>
      </trkpt>
      <trkpt lat="50.34548" lon="4.91455">
        <ele>225.09</ele>
        <time>2017-09-24T14:02:08Z</time>
      </trkpt>
      <trkpt lat="50.34547" lon="4.91458">
        <ele>225.09</ele>
        <time>2017-09-24T14:02:32Z</time>
      </trkpt>
      <trkpt lat="50.34545" lon="4.91444">
        <ele>225.09</ele>
        <time>2017-09-24T14:02:56Z</time>
      </trkpt>
      <trkpt lat="50.34548" lon="4.91416">
        <ele>226.05</ele>
        <time>2017-09-24T14:03:13Z</time>
      </trkpt>
      <trkpt lat="50.3455" lon="4.91388">
        <ele>227.01</ele>
        <time>2017-09-24T14:03:30Z</time>
      </trkpt>
      <trkpt lat="50.34549" lon="4.91351">
        <ele>228.93</ele>
        <time>2017-09-24T14:03:48Z</time>
      </trkpt>
      <trkpt lat="50.34558" lon="4.91327">
        <ele>230.37</ele>
        <time>2017-09-24T14:04:07Z</time>
      </trkpt>
      <trkpt lat="50.34568" lon="4.913">
        <ele>233.74</ele>
        <time>2017-09-24T14:04:27Z</time>
      </trkpt>
      <trkpt lat="50.34577" lon="4.91274">
        <ele>235.66</ele>
        <time>2017-09-24T14:04:46Z</time>
      </trkpt>
      <trkpt lat="50.34592" lon="4.91245">
        <ele>238.06</ele>
        <time>2017-09-24T14:05:08Z</time>
      </trkpt>
      <trkpt lat="50.34605" lon="4.91223">
        <ele>239.99</ele>
        <time>2017-09-24T14:05:28Z</time>
      </trkpt>
      <trkpt lat="50.34618" lon="4.91209">
        <ele>241.91</ele>
        <time>2017-09-24T14:05:45Z</time>
      </trkpt>
      <trkpt lat="50.34635" lon="4.91189">
        <ele>243.83</ele>
        <time>2017-09-24T14:06:03Z</time>
      </trkpt>
      <trkpt lat="50.34648" lon="4.91166">
        <ele>245.75</ele>
        <time>2017-09-24T14:06:22Z</time>
      </trkpt>
      <trkpt lat="50.34659" lon="4.91146">
        <ele>247.68</ele>
        <time>2017-09-24T14:06:40Z</time>
      </trkpt>
      <trkpt lat="50.34671" lon="4.91125">
        <ele>249.6</ele>
        <time>2017-09-24T14:07:00Z</time>
      </trkpt>
      <trkpt lat="50.34684" lon="4.91102">
        <ele>251.52</ele>
        <time>2017-09-24T14:07:18Z</time>
      </trkpt>
      <trkpt lat="50.34701" lon="4.91075">
        <ele>253.93</ele>
        <time>2017-09-24T14:07:37Z</time>
      </trkpt>
      <trkpt lat="50.34718" lon="4.91049">
        <ele>255.85</ele>
        <time>2017-09-24T14:07:58Z</time>
      </trkpt>
      <trkpt lat="50.34731" lon="4.91029">
        <ele>256.81</ele>
        <time>2017-09-24T14:08:15Z</time>
      </trkpt>
      <trkpt lat="50.34744" lon="4.91011">
        <ele>258.73</ele>
        <time>2017-09-24T14:08:36Z</time>
      </trkpt>
      <trkpt lat="50.34758" lon="4.90985">
        <ele>261.14</ele>
        <time>2017-09-24T14:08:58Z</time>
      </trkpt>
      <trkpt lat="50.34769" lon="4.90948">
        <ele>263.06</ele>
        <time>2017-09-24T14:09:19Z</time>
      </trkpt>
      <trkpt lat="50.34772" lon="4.90912">
        <ele>264.02</ele>
        <time>2017-09-24T14:09:37Z</time>
      </trkpt>
      <trkpt lat="50.34773" lon="4.9088">
        <ele>264.5</ele>
        <time>2017-09-24T14:09:54Z</time>
      </trkpt>
      <trkpt lat="50.34777" lon="4.90862">
        <ele>265.46</ele>
        <time>2017-09-24T14:10:12Z</time>
      </trkpt>
      <trkpt lat="50.34776" lon="4.90863">
        <ele>265.94</ele>
        <time>2017-09-24T14:10:29Z</time>
      </trkpt>
      <trkpt lat="50.34778" lon="4.90865">
        <ele>265.94</ele>
        <time>2017-09-24T14:10:52Z</time>
      </trkpt>
      <trkpt lat="50.3478" lon="4.90851">
        <ele>265.94</ele>
        <time>2017-09-24T14:11:05Z</time>
      </trkpt>
      <trkpt lat="50.34781" lon="4.90818">
        <ele>266.42</ele>
        <time>2017-09-24T14:11:24Z</time>
      </trkpt>
      <trkpt lat="50.34786" lon="4.90792">
        <ele>267.38</ele>
        <time>2017-09-24T14:11:40Z</time>
      </trkpt>
      <trkpt lat="50.34798" lon="4.90763">
        <ele>267.38</ele>
        <time>2017-09-24T14:12:00Z</time>
      </trkpt>
      <trkpt lat="50.34802" lon="4.90747">
        <ele>267.86</ele>
        <time>2017-09-24T14:12:13Z</time>
      </trkpt>
      <trkpt lat="50.34802" lon="4.9075">
        <ele>268.35</ele>
        <time>2017-09-24T14:12:31Z</time>
      </trkpt>
      <trkpt lat="50.348" lon="4.90749">
        <ele>268.35</ele>
        <time>2017-09-24T14:12:53Z</time>
      </trkpt>
      <trkpt lat="50.34799" lon="4.90747">
        <ele>268.35</ele>
        <time>2017-09-24T14:13:19Z</time>
      </trkpt>
      <trkpt lat="50.34797" lon="4.90746">
        <ele>268.35</ele>
        <time>2017-09-24T14:13:40Z</time>
      </trkpt>
      <trkpt lat="50.34794" lon="4.90747">
        <ele>268.35</ele>
        <time>2017-09-24T14:14:10Z</time>
      </trkpt>
      <trkpt lat="50.348" lon="4.90748">
        <ele>268.83</ele>
        <time>2017-09-24T14:14:36Z</time>
      </trkpt>
      <trkpt lat="50.348" lon="4.9075">
        <ele>268.83</ele>
        <time>2017-09-24T14:14:59Z</time>
      </trkpt>
      <trkpt lat="50.34799" lon="4.90749">
        <ele>268.83</ele>
        <time>2017-09-24T14:15:16Z</time>
      </trkpt>
      <trkpt lat="50.34797" lon="4.90748">
        <ele>268.83</ele>
        <time>2017-09-24T14:15:33Z</time>
      </trkpt>
      <trkpt lat="50.3479" lon="4.90743">
        <ele>268.83</ele>
        <time>2017-09-24T14:15:53Z</time>
      </trkpt>
      <trkpt lat="50.34771" lon="4.9073">
        <ele>268.83</ele>
        <time>2017-09-24T14:16:12Z</time>
      </trkpt>
      <trkpt lat="50.34752" lon="4.90712">
        <ele>268.83</ele>
        <time>2017-09-24T14:16:33Z</time>
      </trkpt>
      <trkpt lat="50.34743" lon="4.90701">
        <ele>268.83</ele>
        <time>2017-09-24T14:16:43Z</time>
      </trkpt>
      <trkpt lat="50.34735" lon="4.90691">
        <ele>267.86</ele>
        <time>2017-09-24T14:16:51Z</time>
      </trkpt>
      <trkpt lat="50.34715" lon="4.90667">
        <ele>266.9</ele>
        <time>2017-09-24T14:17:11Z</time>
      </trkpt>
      <trkpt lat="50.34709" lon="4.90659">
        <ele>266.9</ele>
        <time>2017-09-24T14:17:18Z</time>
      </trkpt>
      <trkpt lat="50.34689" lon="4.9063">
        <ele>266.42</ele>
        <time>2017-09-24T14:17:40Z</time>
      </trkpt>
      <trkpt lat="50.34675" lon="4.90602">
        <ele>265.94</ele>
        <time>2017-09-24T14:17:58Z</time>
      </trkpt>
      <trkpt lat="50.34661" lon="4.90574">
        <ele>265.46</ele>
        <time>2017-09-24T14:18:17Z</time>
      </trkpt>
      <trkpt lat="50.34648" lon="4.90543">
        <ele>265.46</ele>
        <time>2017-09-24T14:18:36Z</time>
      </trkpt>
      <trkpt lat="50.34635" lon="4.90512">
        <ele>265.46</ele>
        <time>2017-09-24T14:18:54Z</time>
      </trkpt>
      <trkpt lat="50.34624" lon="4.90481">
        <ele>265.46</ele>
        <time>2017-09-24T14:19:13Z</time>
      </trkpt>
      <trkpt lat="50.34615" lon="4.90447">
        <ele>265.46</ele>
        <time>2017-09-24T14:19:32Z</time>
      </trkpt>
      <trkpt lat="50.34603" lon="4.9041">
        <ele>265.46</ele>
        <time>2017-09-24T14:19:52Z</time>
      </trkpt>
      <trkpt lat="50.34589" lon="4.90373">
        <ele>265.46</ele>
        <time>2017-09-24T14:20:15Z</time>
      </trkpt>
      <trkpt lat="50.34576" lon="4.90333">
        <ele>264.98</ele>
        <time>2017-09-24T14:20:40Z</time>
      </trkpt>
      <trkpt lat="50.34564" lon="4.90303">
        <ele>264.5</ele>
        <time>2017-09-24T14:20:59Z</time>
      </trkpt>
      <trkpt lat="50.3455" lon="4.90267">
        <ele>263.54</ele>
        <time>2017-09-24T14:21:20Z</time>
      </trkpt>
      <trkpt lat="50.3454" lon="4.90241">
        <ele>263.06</ele>
        <time>2017-09-24T14:21:38Z</time>
      </trkpt>
      <trkpt lat="50.34524" lon="4.90209">
        <ele>262.1</ele>
        <time>2017-09-24T14:22:01Z</time>
      </trkpt>
      <trkpt lat="50.34508" lon="4.90183">
        <ele>261.14</ele>
        <time>2017-09-24T14:22:22Z</time>
      </trkpt>
      <trkpt lat="50.34489" lon="4.90161">
        <ele>259.69</ele>
        <time>2017-09-24T14:22:42Z</time>
      </trkpt>
      <trkpt lat="50.3447" lon="4.90139">
        <ele>258.25</ele>
        <time>2017-09-24T14:23:02Z</time>
      </trkpt>
      <trkpt lat="50.34446" lon="4.90116">
        <ele>257.29</ele>
        <time>2017-09-24T14:23:23Z</time>
      </trkpt>
      <trkpt lat="50.34428" lon="4.90091">
        <ele>256.33</ele>
        <time>2017-09-24T14:23:43Z</time>
      </trkpt>
      <trkpt lat="50.34413" lon="4.90063">
        <ele>256.33</ele>
        <time>2017-09-24T14:24:03Z</time>
      </trkpt>
      <trkpt lat="50.34398" lon="4.90038">
        <ele>256.81</ele>
        <time>2017-09-24T14:24:22Z</time>
      </trkpt>
      <trkpt lat="50.34382" lon="4.90015">
        <ele>255.85</ele>
        <time>2017-09-24T14:24:41Z</time>
      </trkpt>
      <trkpt lat="50.34368" lon="4.89994">
        <ele>255.85</ele>
        <time>2017-09-24T14:24:58Z</time>
      </trkpt>
      <trkpt lat="50.34352" lon="4.89965">
        <ele>255.85</ele>
        <time>2017-09-24T14:25:19Z</time>
      </trkpt>
      <trkpt lat="50.34335" lon="4.89938">
        <ele>255.85</ele>
        <time>2017-09-24T14:25:40Z</time>
      </trkpt>
      <trkpt lat="50.34331" lon="4.89933">
        <ele>255.85</ele>
        <time>2017-09-24T14:25:58Z</time>
      </trkpt>
      <trkpt lat="50.34327" lon="4.89927">
        <ele>255.85</ele>
        <time>2017-09-24T14:26:18Z</time>
      </trkpt>
      <trkpt lat="50.34314" lon="4.89906">
        <ele>255.85</ele>
        <time>2017-09-24T14:26:34Z</time>
      </trkpt>
      <trkpt lat="50.34301" lon="4.89876">
        <ele>255.37</ele>
        <time>2017-09-24T14:26:54Z</time>
      </trkpt>
      <trkpt lat="50.34286" lon="4.89839">
        <ele>255.37</ele>
        <time>2017-09-24T14:27:15Z</time>
      </trkpt>
      <trkpt lat="50.34273" lon="4.89803">
        <ele>254.89</ele>
        <time>2017-09-24T14:27:37Z</time>
      </trkpt>
      <trkpt lat="50.3426" lon="4.8977">
        <ele>254.41</ele>
        <time>2017-09-24T14:27:57Z</time>
      </trkpt>
      <trkpt lat="50.34253" lon="4.89747">
        <ele>253.93</ele>
        <time>2017-09-24T14:28:12Z</time>
      </trkpt>
      <trkpt lat="50.34243" lon="4.89719">
        <ele>252.96</ele>
        <time>2017-09-24T14:28:30Z</time>
      </trkpt>
      <trkpt lat="50.34231" lon="4.89684">
        <ele>252</ele>
        <time>2017-09-24T14:28:51Z</time>
      </trkpt>
      <trkpt lat="50.34222" lon="4.89657">
        <ele>251.52</ele>
        <time>2017-09-24T14:29:07Z</time>
      </trkpt>
      <trkpt lat="50.3422" lon="4.89645">
        <ele>251.52</ele>
        <time>2017-09-24T14:29:15Z</time>
      </trkpt>
      <trkpt lat="50.34219" lon="4.89608">
        <ele>250.56</ele>
        <time>2017-09-24T14:29:35Z</time>
      </trkpt>
      <trkpt lat="50.34217" lon="4.89566">
        <ele>250.08</ele>
        <time>2017-09-24T14:29:55Z</time>
      </trkpt>
      <trkpt lat="50.34216" lon="4.89528">
        <ele>249.12</ele>
        <time>2017-09-24T14:30:17Z</time>
      </trkpt>
      <trkpt lat="50.34213" lon="4.89493">
        <ele>248.64</ele>
        <time>2017-09-24T14:30:36Z</time>
      </trkpt>
      <trkpt lat="50.34209" lon="4.89453">
        <ele>247.68</ele>
        <time>2017-09-24T14:30:58Z</time>
      </trkpt>
      <trkpt lat="50.34207" lon="4.89443">
        <ele>248.16</ele>
        <time>2017-09-24T14:31:04Z</time>
      </trkpt>
      <trkpt lat="50.34198" lon="4.89411">
        <ele>246.72</ele>
        <time>2017-09-24T14:31:23Z</time>
      </trkpt>
      <trkpt lat="50.34182" lon="4.89372">
        <ele>245.75</ele>
        <time>2017-09-24T14:31:46Z</time>
      </trkpt>
      <trkpt lat="50.34171" lon="4.89346">
        <ele>245.27</ele>
        <time>2017-09-24T14:32:05Z</time>
      </trkpt>
      <trkpt lat="50.34149" lon="4.89316">
        <ele>242.87</ele>
        <time>2017-09-24T14:32:27Z</time>
      </trkpt>
      <trkpt lat="50.34125" lon="4.89292">
        <ele>240.47</ele>
        <time>2017-09-24T14:32:49Z</time>
      </trkpt>
      <trkpt lat="50.34116" lon="4.89275">
        <ele>239.99</ele>
        <time>2017-09-24T14:33:05Z</time>
      </trkpt>
      <trkpt lat="50.34105" lon="4.89264">
        <ele>238.54</ele>
        <time>2017-09-24T14:33:20Z</time>
      </trkpt>
      <trkpt lat="50.34097" lon="4.89256">
        <ele>238.06</ele>
        <time>2017-09-24T14:33:29Z</time>
      </trkpt>
      <trkpt lat="50.34079" lon="4.89228">
        <ele>235.66</ele>
        <time>2017-09-24T14:33:50Z</time>
      </trkpt>
      <trkpt lat="50.34062" lon="4.89201">
        <ele>233.74</ele>
        <time>2017-09-24T14:34:10Z</time>
      </trkpt>
      <trkpt lat="50.34045" lon="4.89166">
        <ele>232.78</ele>
        <time>2017-09-24T14:34:33Z</time>
      </trkpt>
      <trkpt lat="50.34032" lon="4.89138">
        <ele>232.3</ele>
        <time>2017-09-24T14:34:51Z</time>
      </trkpt>
      <trkpt lat="50.34034" lon="4.89122">
        <ele>232.3</ele>
        <time>2017-09-24T14:35:06Z</time>
      </trkpt>
      <trkpt lat="50.34036" lon="4.89094">
        <ele>234.22</ele>
        <time>2017-09-24T14:35:24Z</time>
      </trkpt>
      <trkpt lat="50.34036" lon="4.89055">
        <ele>235.66</ele>
        <time>2017-09-24T14:35:46Z</time>
      </trkpt>
      <trkpt lat="50.34034" lon="4.89032">
        <ele>237.1</ele>
        <time>2017-09-24T14:35:58Z</time>
      </trkpt>
      <trkpt lat="50.34032" lon="4.88994">
        <ele>238.06</ele>
        <time>2017-09-24T14:36:16Z</time>
      </trkpt>
      <trkpt lat="50.34034" lon="4.88959">
        <ele>239.02</ele>
        <time>2017-09-24T14:36:37Z</time>
      </trkpt>
      <trkpt lat="50.34037" lon="4.88925">
        <ele>239.99</ele>
        <time>2017-09-24T14:36:57Z</time>
      </trkpt>
      <trkpt lat="50.34048" lon="4.88897">
        <ele>240.95</ele>
        <time>2017-09-24T14:37:14Z</time>
      </trkpt>
      <trkpt lat="50.34066" lon="4.88896">
        <ele>242.87</ele>
        <time>2017-09-24T14:37:32Z</time>
      </trkpt>
      <trkpt lat="50.34081" lon="4.889">
        <ele>245.27</ele>
        <time>2017-09-24T14:37:48Z</time>
      </trkpt>
      <trkpt lat="50.34103" lon="4.88904">
        <ele>246.72</ele>
        <time>2017-09-24T14:38:08Z</time>
      </trkpt>
      <trkpt lat="50.34125" lon="4.88909">
        <ele>248.16</ele>
        <time>2017-09-24T14:38:26Z</time>
      </trkpt>
      <trkpt lat="50.34144" lon="4.88911">
        <ele>250.56</ele>
        <time>2017-09-24T14:38:43Z</time>
      </trkpt>
      <trkpt lat="50.34163" lon="4.88912">
        <ele>252.48</ele>
        <time>2017-09-24T14:39:01Z</time>
      </trkpt>
      <trkpt lat="50.34182" lon="4.88914">
        <ele>254.41</ele>
        <time>2017-09-24T14:39:19Z</time>
      </trkpt>
      <trkpt lat="50.34208" lon="4.88917">
        <ele>256.81</ele>
        <time>2017-09-24T14:39:41Z</time>
      </trkpt>
      <trkpt lat="50.34227" lon="4.88918">
        <ele>258.73</ele>
        <time>2017-09-24T14:39:58Z</time>
      </trkpt>
      <trkpt lat="50.34247" lon="4.8892">
        <ele>260.65</ele>
        <time>2017-09-24T14:40:17Z</time>
      </trkpt>
      <trkpt lat="50.34272" lon="4.88923">
        <ele>263.54</ele>
        <time>2017-09-24T14:40:38Z</time>
      </trkpt>
      <trkpt lat="50.34295" lon="4.88924">
        <ele>265.46</ele>
        <time>2017-09-24T14:40:58Z</time>
      </trkpt>
      <trkpt lat="50.34315" lon="4.88925">
        <ele>267.38</ele>
        <time>2017-09-24T14:41:18Z</time>
      </trkpt>
      <trkpt lat="50.34322" lon="4.88923">
        <ele>267.86</ele>
        <time>2017-09-24T14:41:39Z</time>
      </trkpt>
      <trkpt lat="50.34323" lon="4.88921">
        <ele>267.86</ele>
        <time>2017-09-24T14:42:05Z</time>
      </trkpt>
      <trkpt lat="50.34323" lon="4.88918">
        <ele>267.86</ele>
        <time>2017-09-24T14:42:29Z</time>
      </trkpt>
      <trkpt lat="50.34325" lon="4.88921">
        <ele>267.86</ele>
        <time>2017-09-24T14:42:58Z</time>
      </trkpt>
      <trkpt lat="50.34322" lon="4.88922">
        <ele>267.86</ele>
        <time>2017-09-24T14:43:21Z</time>
      </trkpt>
      <trkpt lat="50.34321" lon="4.88925">
        <ele>267.86</ele>
        <time>2017-09-24T14:43:51Z</time>
      </trkpt>
      <trkpt lat="50.34322" lon="4.88928">
        <ele>267.86</ele>
        <time>2017-09-24T14:44:14Z</time>
      </trkpt>
      <trkpt lat="50.34321" lon="4.88924">
        <ele>267.86</ele>
        <time>2017-09-24T14:44:44Z</time>
      </trkpt>
      <trkpt lat="50.3432" lon="4.88923">
        <ele>267.86</ele>
        <time>2017-09-24T14:45:19Z</time>
      </trkpt>
      <trkpt lat="50.34321" lon="4.88923">
        <ele>267.86</ele>
        <time>2017-09-24T14:45:45Z</time>
      </trkpt>
      <trkpt lat="50.34321" lon="4.88924">
        <ele>267.86</ele>
        <time>2017-09-24T14:46:13Z</time>
      </trkpt>
      <trkpt lat="50.34322" lon="4.88924">
        <ele>267.86</ele>
        <time>2017-09-24T14:46:30Z</time>
      </trkpt>
      <trkpt lat="50.34321" lon="4.88927">
        <ele>267.86</ele>
        <time>2017-09-24T14:46:51Z</time>
      </trkpt>
      <trkpt lat="50.34322" lon="4.88923">
        <ele>267.86</ele>
        <time>2017-09-24T14:47:12Z</time>
      </trkpt>
      <trkpt lat="50.34321" lon="4.88922">
        <ele>267.86</ele>
        <time>2017-09-24T14:47:39Z</time>
      </trkpt>
      <trkpt lat="50.34323" lon="4.88924">
        <ele>267.86</ele>
        <time>2017-09-24T14:47:58Z</time>
      </trkpt>
      <trkpt lat="50.34323" lon="4.88923">
        <ele>267.86</ele>
        <time>2017-09-24T14:48:27Z</time>
      </trkpt>
      <trkpt lat="50.34322" lon="4.88925">
        <ele>267.86</ele>
        <time>2017-09-24T14:48:47Z</time>
      </trkpt>
      <trkpt lat="50.34322" lon="4.88923">
        <ele>267.86</ele>
        <time>2017-09-24T14:49:10Z</time>
      </trkpt>
      <trkpt lat="50.34321" lon="4.88923">
        <ele>267.86</ele>
        <time>2017-09-24T14:49:35Z</time>
      </trkpt>
      <trkpt lat="50.34321" lon="4.88924">
        <ele>268.35</ele>
        <time>2017-09-24T14:50:02Z</time>
      </trkpt>
      <trkpt lat="50.34321" lon="4.88924">
        <ele>268.35</ele>
        <time>2017-09-24T14:50:32Z</time>
      </trkpt>
      <trkpt lat="50.34322" lon="4.88924">
        <ele>268.35</ele>
        <time>2017-09-24T14:50:57Z</time>
      </trkpt>
      <trkpt lat="50.34322" lon="4.88923">
        <ele>268.35</ele>
        <time>2017-09-24T14:51:25Z</time>
      </trkpt>
      <trkpt lat="50.34323" lon="4.88922">
        <ele>268.35</ele>
        <time>2017-09-24T14:51:55Z</time>
      </trkpt>
      <trkpt lat="50.34323" lon="4.88923">
        <ele>268.35</ele>
        <time>2017-09-24T14:52:20Z</time>
      </trkpt>
      <trkpt lat="50.34322" lon="4.88924">
        <ele>268.35</ele>
        <time>2017-09-24T14:52:40Z</time>
      </trkpt>
      <trkpt lat="50.34321" lon="4.88925">
        <ele>268.35</ele>
        <time>2017-09-24T14:53:10Z</time>
      </trkpt>
      <trkpt lat="50.34322" lon="4.88923">
        <ele>268.35</ele>
        <time>2017-09-24T14:53:41Z</time>
      </trkpt>
      <trkpt lat="50.34319" lon="4.88923">
        <ele>268.35</ele>
        <time>2017-09-24T14:54:10Z</time>
      </trkpt>
      <trkpt lat="50.34319" lon="4.88924">
        <ele>268.35</ele>
        <time>2017-09-24T14:54:46Z</time>
      </trkpt>
      <trkpt lat="50.3432" lon="4.88923">
        <ele>268.83</ele>
        <time>2017-09-24T14:55:12Z</time>
      </trkpt>
      <trkpt lat="50.34321" lon="4.88924">
        <ele>268.83</ele>
        <time>2017-09-24T14:55:42Z</time>
      </trkpt>
      <trkpt lat="50.34322" lon="4.88926">
        <ele>268.83</ele>
        <time>2017-09-24T14:56:10Z</time>
      </trkpt>
      <trkpt lat="50.34322" lon="4.88926">
        <ele>268.83</ele>
        <time>2017-09-24T14:56:32Z</time>
      </trkpt>
      <trkpt lat="50.34322" lon="4.88924">
        <ele>268.83</ele>
        <time>2017-09-24T14:56:48Z</time>
      </trkpt>
      <trkpt lat="50.34327" lon="4.88928">
        <ele>268.83</ele>
        <time>2017-09-24T14:57:03Z</time>
      </trkpt>
      <trkpt lat="50.3433" lon="4.88932">
        <ele>269.31</ele>
        <time>2017-09-24T14:57:17Z</time>
      </trkpt>
      <trkpt lat="50.34338" lon="4.88934">
        <ele>269.79</ele>
        <time>2017-09-24T14:57:30Z</time>
      </trkpt>
      <trkpt lat="50.34351" lon="4.88934">
        <ele>270.27</ele>
        <time>2017-09-24T14:57:46Z</time>
      </trkpt>
      <trkpt lat="50.34353" lon="4.88931">
        <ele>270.75</ele>
        <time>2017-09-24T14:58:02Z</time>
      </trkpt>
      <trkpt lat="50.34375" lon="4.88941">
        <ele>271.71</ele>
        <time>2017-09-24T14:58:22Z</time>
      </trkpt>
      <trkpt lat="50.344" lon="4.88957">
        <ele>273.63</ele>
        <time>2017-09-24T14:58:44Z</time>
      </trkpt>
      <trkpt lat="50.34416" lon="4.88973">
        <ele>274.59</ele>
        <time>2017-09-24T14:59:04Z</time>
      </trkpt>
      <trkpt lat="50.34439" lon="4.88998">
        <ele>275.56</ele>
        <time>2017-09-24T14:59:25Z</time>
      </trkpt>
      <trkpt lat="50.34459" lon="4.89017">
        <ele>276.52</ele>
        <time>2017-09-24T14:59:47Z</time>
      </trkpt>
      <trkpt lat="50.3448" lon="4.89037">
        <ele>277</ele>
        <time>2017-09-24T15:00:09Z</time>
      </trkpt>
      <trkpt lat="50.34498" lon="4.89054">
        <ele>277.48</ele>
        <time>2017-09-24T15:00:30Z</time>
      </trkpt>
      <trkpt lat="50.34522" lon="4.89073">
        <ele>277.96</ele>
        <time>2017-09-24T15:00:52Z</time>
      </trkpt>
      <trkpt lat="50.3454" lon="4.89095">
        <ele>277.96</ele>
        <time>2017-09-24T15:01:13Z</time>
      </trkpt>
      <trkpt lat="50.3456" lon="4.89111">
        <ele>277.96</ele>
        <time>2017-09-24T15:01:32Z</time>
      </trkpt>
      <trkpt lat="50.34585" lon="4.89136">
        <ele>278.44</ele>
        <time>2017-09-24T15:01:54Z</time>
      </trkpt>
      <trkpt lat="50.34601" lon="4.89152">
        <ele>278.44</ele>
        <time>2017-09-24T15:02:13Z</time>
      </trkpt>
      <trkpt lat="50.34622" lon="4.89159">
        <ele>278.44</ele>
        <time>2017-09-24T15:02:32Z</time>
      </trkpt>
      <trkpt lat="50.34646" lon="4.89154">
        <ele>278.44</ele>
        <time>2017-09-24T15:02:56Z</time>
      </trkpt>
      <trkpt lat="50.34669" lon="4.89157">
        <ele>277</ele>
        <time>2017-09-24T15:03:17Z</time>
      </trkpt>
      <trkpt lat="50.34685" lon="4.89158">
        <ele>276.52</ele>
        <time>2017-09-24T15:03:36Z</time>
      </trkpt>
      <trkpt lat="50.34697" lon="4.89171">
        <ele>276.04</ele>
        <time>2017-09-24T15:03:56Z</time>
      </trkpt>
      <trkpt lat="50.34719" lon="4.89185">
        <ele>275.07</ele>
        <time>2017-09-24T15:04:14Z</time>
      </trkpt>
      <trkpt lat="50.34744" lon="4.89191">
        <ele>273.63</ele>
        <time>2017-09-24T15:04:35Z</time>
      </trkpt>
      <trkpt lat="50.34762" lon="4.89192">
        <ele>272.19</ele>
        <time>2017-09-24T15:04:53Z</time>
      </trkpt>
      <trkpt lat="50.34788" lon="4.89205">
        <ele>270.75</ele>
        <time>2017-09-24T15:05:14Z</time>
      </trkpt>
      <trkpt lat="50.34802" lon="4.89219">
        <ele>268.83</ele>
        <time>2017-09-24T15:05:32Z</time>
      </trkpt>
      <trkpt lat="50.34827" lon="4.89233">
        <ele>266.42</ele>
        <time>2017-09-24T15:05:54Z</time>
      </trkpt>
      <trkpt lat="50.34852" lon="4.89251">
        <ele>264.5</ele>
        <time>2017-09-24T15:06:13Z</time>
      </trkpt>
      <trkpt lat="50.34865" lon="4.8927">
        <ele>262.58</ele>
        <time>2017-09-24T15:06:32Z</time>
      </trkpt>
      <trkpt lat="50.34881" lon="4.8929">
        <ele>259.21</ele>
        <time>2017-09-24T15:06:52Z</time>
      </trkpt>
      <trkpt lat="50.34901" lon="4.89311">
        <ele>256.81</ele>
        <time>2017-09-24T15:07:12Z</time>
      </trkpt>
      <trkpt lat="50.34916" lon="4.89326">
        <ele>253.44</ele>
        <time>2017-09-24T15:07:30Z</time>
      </trkpt>
      <trkpt lat="50.34939" lon="4.89344">
        <ele>250.56</ele>
        <time>2017-09-24T15:07:50Z</time>
      </trkpt>
      <trkpt lat="50.34957" lon="4.89353">
        <ele>247.2</ele>
        <time>2017-09-24T15:08:14Z</time>
      </trkpt>
      <trkpt lat="50.34974" lon="4.89362">
        <ele>245.27</ele>
        <time>2017-09-24T15:08:32Z</time>
      </trkpt>
      <trkpt lat="50.35001" lon="4.89382">
        <ele>242.87</ele>
        <time>2017-09-24T15:08:51Z</time>
      </trkpt>
      <trkpt lat="50.35016" lon="4.894">
        <ele>240.95</ele>
        <time>2017-09-24T15:09:12Z</time>
      </trkpt>
      <trkpt lat="50.3503" lon="4.89404">
        <ele>238.06</ele>
        <time>2017-09-24T15:09:29Z</time>
      </trkpt>
      <trkpt lat="50.35043" lon="4.89406">
        <ele>234.7</ele>
        <time>2017-09-24T15:09:46Z</time>
      </trkpt>
      <trkpt lat="50.35062" lon="4.89416">
        <ele>231.81</ele>
        <time>2017-09-24T15:10:07Z</time>
      </trkpt>
      <trkpt lat="50.35073" lon="4.8942">
        <ele>228.45</ele>
        <time>2017-09-24T15:10:22Z</time>
      </trkpt>
      <trkpt lat="50.3509" lon="4.89423">
        <ele>225.57</ele>
        <time>2017-09-24T15:10:34Z</time>
      </trkpt>
      <trkpt lat="50.351" lon="4.8944">
        <ele>222.2</ele>
        <time>2017-09-24T15:10:53Z</time>
      </trkpt>
      <trkpt lat="50.35106" lon="4.89458">
        <ele>218.84</ele>
        <time>2017-09-24T15:11:09Z</time>
      </trkpt>
      <trkpt lat="50.35106" lon="4.89501">
        <ele>215.95</ele>
        <time>2017-09-24T15:11:31Z</time>
      </trkpt>
      <trkpt lat="50.35111" lon="4.89531">
        <ele>214.99</ele>
        <time>2017-09-24T15:11:50Z</time>
      </trkpt>
      <trkpt lat="50.35111" lon="4.89533">
        <ele>214.99</ele>
        <time>2017-09-24T15:11:51Z</time>
      </trkpt>
      <trkpt lat="50.35115" lon="4.89554">
        <ele>214.99</ele>
        <time>2017-09-24T15:12:09Z</time>
      </trkpt>
      <trkpt lat="50.35136" lon="4.89557">
        <ele>212.11</ele>
        <time>2017-09-24T15:12:28Z</time>
      </trkpt>
      <trkpt lat="50.35159" lon="4.89558">
        <ele>209.22</ele>
        <time>2017-09-24T15:12:48Z</time>
      </trkpt>
      <trkpt lat="50.35177" lon="4.89557">
        <ele>207.3</ele>
        <time>2017-09-24T15:13:06Z</time>
      </trkpt>
      <trkpt lat="50.35193" lon="4.89554">
        <ele>204.9</ele>
        <time>2017-09-24T15:13:23Z</time>
      </trkpt>
      <trkpt lat="50.35199" lon="4.8957">
        <ele>204.42</ele>
        <time>2017-09-24T15:13:41Z</time>
      </trkpt>
      <trkpt lat="50.35194" lon="4.89603">
        <ele>205.86</ele>
        <time>2017-09-24T15:14:02Z</time>
      </trkpt>
      <trkpt lat="50.35186" lon="4.89639">
        <ele>206.82</ele>
        <time>2017-09-24T15:14:23Z</time>
      </trkpt>
      <trkpt lat="50.35178" lon="4.89663">
        <ele>209.22</ele>
        <time>2017-09-24T15:14:42Z</time>
      </trkpt>
      <trkpt lat="50.3518" lon="4.89682">
        <ele>208.74</ele>
        <time>2017-09-24T15:14:57Z</time>
      </trkpt>
      <trkpt lat="50.35181" lon="4.89722">
        <ele>207.78</ele>
        <time>2017-09-24T15:15:18Z</time>
      </trkpt>
      <trkpt lat="50.35179" lon="4.89763">
        <ele>206.82</ele>
        <time>2017-09-24T15:15:40Z</time>
      </trkpt>
      <trkpt lat="50.35184" lon="4.89808">
        <ele>208.74</ele>
        <time>2017-09-24T15:16:05Z</time>
      </trkpt>
      <trkpt lat="50.35197" lon="4.89824">
        <ele>207.3</ele>
        <time>2017-09-24T15:16:25Z</time>
      </trkpt>
      <trkpt lat="50.35212" lon="4.89829">
        <ele>205.86</ele>
        <time>2017-09-24T15:16:43Z</time>
      </trkpt>
      <trkpt lat="50.35212" lon="4.89846">
        <ele>205.38</ele>
        <time>2017-09-24T15:17:00Z</time>
      </trkpt>
      <trkpt lat="50.35215" lon="4.89874">
        <ele>206.34</ele>
        <time>2017-09-24T15:17:19Z</time>
      </trkpt>
      <trkpt lat="50.35221" lon="4.89914">
        <ele>206.34</ele>
        <time>2017-09-24T15:17:44Z</time>
      </trkpt>
      <trkpt lat="50.35224" lon="4.89949">
        <ele>206.34</ele>
        <time>2017-09-24T15:18:05Z</time>
      </trkpt>
      <trkpt lat="50.35229" lon="4.89975">
        <ele>206.34</ele>
        <time>2017-09-24T15:18:26Z</time>
      </trkpt>
      <trkpt lat="50.35229" lon="4.89976">
        <ele>206.34</ele>
        <time>2017-09-24T15:18:40Z</time>
      </trkpt>
      <trkpt lat="50.3523" lon="4.8998">
        <ele>206.34</ele>
        <time>2017-09-24T15:18:43Z</time>
      </trkpt>
      <trkpt lat="50.35233" lon="4.89987">
        <ele>206.34</ele>
        <time>2017-09-24T15:18:49Z</time>
      </trkpt>
      <trkpt lat="50.35237" lon="4.9003">
        <ele>206.34</ele>
        <time>2017-09-24T15:19:14Z</time>
      </trkpt>
      <trkpt lat="50.35241" lon="4.90071">
        <ele>205.86</ele>
        <time>2017-09-24T15:19:35Z</time>
      </trkpt>
      <trkpt lat="50.35246" lon="4.90114">
        <ele>205.86</ele>
        <time>2017-09-24T15:19:57Z</time>
      </trkpt>
      <trkpt lat="50.3525" lon="4.90152">
        <ele>205.86</ele>
        <time>2017-09-24T15:20:18Z</time>
      </trkpt>
      <trkpt lat="50.35251" lon="4.90179">
        <ele>206.34</ele>
        <time>2017-09-24T15:20:36Z</time>
      </trkpt>
      <trkpt lat="50.35253" lon="4.90208">
        <ele>206.34</ele>
        <time>2017-09-24T15:20:53Z</time>
      </trkpt>
      <trkpt lat="50.35259" lon="4.90236">
        <ele>207.3</ele>
        <time>2017-09-24T15:21:10Z</time>
      </trkpt>
      <trkpt lat="50.35265" lon="4.90249">
        <ele>208.26</ele>
        <time>2017-09-24T15:21:22Z</time>
      </trkpt>
      <trkpt lat="50.35268" lon="4.9025">
        <ele>208.26</ele>
        <time>2017-09-24T15:21:26Z</time>
      </trkpt>
      <trkpt lat="50.35271" lon="4.90248">
        <ele>207.78</ele>
        <time>2017-09-24T15:21:30Z</time>
      </trkpt>
      <trkpt lat="50.35285" lon="4.90235">
        <ele>205.86</ele>
        <time>2017-09-24T15:21:44Z</time>
      </trkpt>
      <trkpt lat="50.35289" lon="4.90231">
        <ele>205.38</ele>
        <time>2017-09-24T15:21:51Z</time>
      </trkpt>
      <trkpt lat="50.35291" lon="4.90229">
        <ele>204.9</ele>
        <time>2017-09-24T15:21:53Z</time>
      </trkpt>
      <trkpt lat="50.35298" lon="4.90222">
        <ele>204.42</ele>
        <time>2017-09-24T15:22:02Z</time>
      </trkpt>
      <trkpt lat="50.35305" lon="4.90214">
        <ele>203.94</ele>
        <time>2017-09-24T15:22:18Z</time>
      </trkpt>
      <trkpt lat="50.35305" lon="4.90213">
        <ele>203.94</ele>
        <time>2017-09-24T15:22:35Z</time>
      </trkpt>
      <trkpt lat="50.35305" lon="4.90213">
        <ele>203.94</ele>
        <time>2017-09-24T15:22:53Z</time>
      </trkpt>
    </trkseg>
  </trk>
</gpx>